<?xml version="1.0" encoding="UTF-8" standalone="no" ?>
<gpx xmlns="http://www.topografix.com/GPX/1/1" xmlns:xsi="http://www.w3.org/2001/XMLSchema-instance" xsi:schemaLocation="http://www.topografix.com/GPX/1/1 http://www.topografix.com/GPX/1/1/gpx.xsd" version="1.1" creator="VisuGPX - https://www.visugpx.com">
  <metadata>
    <name>Port de Vénasque</name>
    <desc><![CDATA[Randonnée au port de Vénasque.
Départ hospice de France - Refuge de Vénasque - Port de Vénasque]]></desc>
  </metadata>
  <trk>
    <name><![CDATA[Move]]></name>
    <trkseg>
      <trkpt lat="42.72131" lon="0.65412">
        <ele>1401</ele>
        <time>2016-09-24T05:19:59.583Z</time>
      </trkpt>
      <trkpt lat="42.72134" lon="0.65411">
        <ele>1401</ele>
        <time>2016-09-24T05:20:02.583Z</time>
      </trkpt>
      <trkpt lat="42.7213" lon="0.65411">
        <ele>1400</ele>
        <time>2016-09-24T05:20:25.583Z</time>
      </trkpt>
      <trkpt lat="42.72124" lon="0.65424">
        <ele>1402</ele>
        <time>2016-09-24T05:21:27.583Z</time>
      </trkpt>
      <trkpt lat="42.72113" lon="0.65434">
        <ele>1404</ele>
        <time>2016-09-24T05:21:39.583Z</time>
      </trkpt>
      <trkpt lat="42.72105" lon="0.65445">
        <ele>1406</ele>
        <time>2016-09-24T05:21:48.583Z</time>
      </trkpt>
      <trkpt lat="42.72102" lon="0.6546">
        <ele>1408</ele>
        <time>2016-09-24T05:21:57.583Z</time>
      </trkpt>
      <trkpt lat="42.72095" lon="0.65472">
        <ele>1407</ele>
        <time>2016-09-24T05:22:05.583Z</time>
      </trkpt>
      <trkpt lat="42.72093" lon="0.65487">
        <ele>1409</ele>
        <time>2016-09-24T05:22:15.583Z</time>
      </trkpt>
      <trkpt lat="42.7209" lon="0.65501">
        <ele>1409</ele>
        <time>2016-09-24T05:22:23.583Z</time>
      </trkpt>
      <trkpt lat="42.72079" lon="0.65495">
        <ele>1408</ele>
        <time>2016-09-24T05:23:09.583Z</time>
      </trkpt>
      <trkpt lat="42.72067" lon="0.6549">
        <ele>1406</ele>
        <time>2016-09-24T05:23:17.583Z</time>
      </trkpt>
      <trkpt lat="42.7206" lon="0.65477">
        <ele>1403.3019151241</ele>
        <time>2016-09-24T05:23:28.583Z</time>
      </trkpt>
      <trkpt lat="42.72051" lon="0.65469">
        <ele>1402</ele>
        <time>2016-09-24T05:23:36.583Z</time>
      </trkpt>
      <trkpt lat="42.72044" lon="0.65457">
        <ele>1402</ele>
        <time>2016-09-24T05:23:46.583Z</time>
      </trkpt>
      <trkpt lat="42.72031" lon="0.65455">
        <ele>1403</ele>
        <time>2016-09-24T05:23:54.583Z</time>
      </trkpt>
      <trkpt lat="42.72024" lon="0.65444">
        <ele>1405</ele>
        <time>2016-09-24T05:24:20.583Z</time>
      </trkpt>
      <trkpt lat="42.72014" lon="0.65437">
        <ele>1407</ele>
        <time>2016-09-24T05:24:31.583Z</time>
      </trkpt>
      <trkpt lat="42.72005" lon="0.65428">
        <ele>1410</ele>
        <time>2016-09-24T05:24:49.583Z</time>
      </trkpt>
      <trkpt lat="42.71998" lon="0.65417">
        <ele>1412</ele>
        <time>2016-09-24T05:25:00.583Z</time>
      </trkpt>
      <trkpt lat="42.71997" lon="0.65405">
        <ele>1414</ele>
        <time>2016-09-24T05:25:08.583Z</time>
      </trkpt>
      <trkpt lat="42.7199" lon="0.654">
        <ele>1415.4648692905</ele>
        <time>2016-09-24T05:25:15.583Z</time>
      </trkpt>
      <trkpt lat="42.71985" lon="0.65398">
        <ele>1416</ele>
        <time>2016-09-24T05:25:18.583Z</time>
      </trkpt>
      <trkpt lat="42.71982" lon="0.65396">
        <ele>1416</ele>
        <time>2016-09-24T05:25:21.583Z</time>
      </trkpt>
      <trkpt lat="42.71972" lon="0.65389">
        <ele>1417</ele>
        <time>2016-09-24T05:25:30.583Z</time>
      </trkpt>
      <trkpt lat="42.71968" lon="0.65386">
        <ele>1418.5763598326</ele>
        <time>2016-09-24T05:25:35.583Z</time>
      </trkpt>
      <trkpt lat="42.71963" lon="0.65389">
        <ele>1419</ele>
        <time>2016-09-24T05:25:41.583Z</time>
      </trkpt>
      <trkpt lat="42.71953" lon="0.65385">
        <ele>1423</ele>
        <time>2016-09-24T05:25:51.583Z</time>
      </trkpt>
      <trkpt lat="42.7195" lon="0.65381">
        <ele>1424</ele>
        <time>2016-09-24T05:25:56.583Z</time>
      </trkpt>
      <trkpt lat="42.71946" lon="0.65379">
        <ele>1424</ele>
        <time>2016-09-24T05:26:00.583Z</time>
      </trkpt>
      <trkpt lat="42.71941" lon="0.65377">
        <ele>1426</ele>
        <time>2016-09-24T05:26:05.583Z</time>
      </trkpt>
      <trkpt lat="42.71937" lon="0.65376">
        <ele>1426</ele>
        <time>2016-09-24T05:26:09.583Z</time>
      </trkpt>
      <trkpt lat="42.71933" lon="0.65376">
        <ele>1426</ele>
        <time>2016-09-24T05:26:13.583Z</time>
      </trkpt>
      <trkpt lat="42.71929" lon="0.65375">
        <ele>1428</ele>
        <time>2016-09-24T05:26:17.583Z</time>
      </trkpt>
      <trkpt lat="42.71926" lon="0.65372">
        <ele>1430</ele>
        <time>2016-09-24T05:26:21.583Z</time>
      </trkpt>
      <trkpt lat="42.71921" lon="0.65371">
        <ele>1430.6972207407</ele>
        <time>2016-09-24T05:26:25.583Z</time>
      </trkpt>
      <trkpt lat="42.71917" lon="0.65372">
        <ele>1431</ele>
        <time>2016-09-24T05:26:29.583Z</time>
      </trkpt>
      <trkpt lat="42.71913" lon="0.6537">
        <ele>1433</ele>
        <time>2016-09-24T05:26:34.583Z</time>
      </trkpt>
      <trkpt lat="42.71909" lon="0.6537">
        <ele>1435</ele>
        <time>2016-09-24T05:26:38.583Z</time>
      </trkpt>
      <trkpt lat="42.71904" lon="0.65373">
        <ele>1436.7118154949</ele>
        <time>2016-09-24T05:26:49.583Z</time>
      </trkpt>
      <trkpt lat="42.71901" lon="0.65376">
        <ele>1437</ele>
        <time>2016-09-24T05:26:52.583Z</time>
      </trkpt>
      <trkpt lat="42.71897" lon="0.65378">
        <ele>1437</ele>
        <time>2016-09-24T05:26:56.583Z</time>
      </trkpt>
      <trkpt lat="42.71893" lon="0.6538">
        <ele>1437</ele>
        <time>2016-09-24T05:27:00.583Z</time>
      </trkpt>
      <trkpt lat="42.71889" lon="0.65381">
        <ele>1437</ele>
        <time>2016-09-24T05:27:03.583Z</time>
      </trkpt>
      <trkpt lat="42.71885" lon="0.65381">
        <ele>1438</ele>
        <time>2016-09-24T05:27:06.583Z</time>
      </trkpt>
      <trkpt lat="42.71881" lon="0.65382">
        <ele>1438</ele>
        <time>2016-09-24T05:27:09.583Z</time>
      </trkpt>
      <trkpt lat="42.71877" lon="0.65383">
        <ele>1438</ele>
        <time>2016-09-24T05:27:12.583Z</time>
      </trkpt>
      <trkpt lat="42.71873" lon="0.65382">
        <ele>1440</ele>
        <time>2016-09-24T05:27:16.583Z</time>
      </trkpt>
      <trkpt lat="42.71869" lon="0.6538">
        <ele>1440.9721698051</ele>
        <time>2016-09-24T05:27:20.583Z</time>
      </trkpt>
      <trkpt lat="42.71865" lon="0.65378">
        <ele>1441</ele>
        <time>2016-09-24T05:27:24.583Z</time>
      </trkpt>
      <trkpt lat="42.71861" lon="0.65375">
        <ele>1441</ele>
        <time>2016-09-24T05:27:28.583Z</time>
      </trkpt>
      <trkpt lat="42.71858" lon="0.65372">
        <ele>1441</ele>
        <time>2016-09-24T05:27:31.583Z</time>
      </trkpt>
      <trkpt lat="42.71854" lon="0.65368">
        <ele>1441</ele>
        <time>2016-09-24T05:27:34.583Z</time>
      </trkpt>
      <trkpt lat="42.71851" lon="0.65365">
        <ele>1441</ele>
        <time>2016-09-24T05:27:37.583Z</time>
      </trkpt>
      <trkpt lat="42.71848" lon="0.6536">
        <ele>1441</ele>
        <time>2016-09-24T05:27:41.583Z</time>
      </trkpt>
      <trkpt lat="42.71846" lon="0.65355">
        <ele>1440</ele>
        <time>2016-09-24T05:27:45.583Z</time>
      </trkpt>
      <trkpt lat="42.71843" lon="0.65351">
        <ele>1440</ele>
        <time>2016-09-24T05:27:48.583Z</time>
      </trkpt>
      <trkpt lat="42.71833" lon="0.65343">
        <ele>1440</ele>
        <time>2016-09-24T05:27:55.583Z</time>
      </trkpt>
      <trkpt lat="42.71825" lon="0.65338">
        <ele>1441</ele>
        <time>2016-09-24T05:28:03.583Z</time>
      </trkpt>
      <trkpt lat="42.71814" lon="0.65332">
        <ele>1441</ele>
        <time>2016-09-24T05:28:11.583Z</time>
      </trkpt>
      <trkpt lat="42.71802" lon="0.65328">
        <ele>1441</ele>
        <time>2016-09-24T05:28:19.583Z</time>
      </trkpt>
      <trkpt lat="42.71793" lon="0.65317">
        <ele>1441</ele>
        <time>2016-09-24T05:28:27.583Z</time>
      </trkpt>
      <trkpt lat="42.71787" lon="0.65309">
        <ele>1443</ele>
        <time>2016-09-24T05:28:35.583Z</time>
      </trkpt>
      <trkpt lat="42.71785" lon="0.65303">
        <ele>1443</ele>
        <time>2016-09-24T05:28:39.583Z</time>
      </trkpt>
      <trkpt lat="42.71782" lon="0.65295">
        <ele>1445.233560771</ele>
        <time>2016-09-24T05:28:45.583Z</time>
      </trkpt>
      <trkpt lat="42.71751" lon="0.65269">
        <ele>1449</ele>
        <time>2016-09-24T05:29:19.583Z</time>
      </trkpt>
      <trkpt lat="42.71749" lon="0.65268">
        <ele>1449</ele>
        <time>2016-09-24T05:29:21.583Z</time>
      </trkpt>
      <trkpt lat="42.71744" lon="0.65265">
        <ele>1449</ele>
        <time>2016-09-24T05:29:25.583Z</time>
      </trkpt>
      <trkpt lat="42.71738" lon="0.65263">
        <ele>1449</ele>
        <time>2016-09-24T05:29:30.583Z</time>
      </trkpt>
      <trkpt lat="42.71734" lon="0.6526">
        <ele>1449</ele>
        <time>2016-09-24T05:29:34.583Z</time>
      </trkpt>
      <trkpt lat="42.71729" lon="0.65258">
        <ele>1451</ele>
        <time>2016-09-24T05:29:38.583Z</time>
      </trkpt>
      <trkpt lat="42.71726" lon="0.65256">
        <ele>1451</ele>
        <time>2016-09-24T05:29:41.583Z</time>
      </trkpt>
      <trkpt lat="42.71714" lon="0.65253">
        <ele>1452</ele>
        <time>2016-09-24T05:29:50.583Z</time>
      </trkpt>
      <trkpt lat="42.71704" lon="0.6526">
        <ele>1452</ele>
        <time>2016-09-24T05:29:59.583Z</time>
      </trkpt>
      <trkpt lat="42.71707" lon="0.65265">
        <ele>1452</ele>
        <time>2016-09-24T05:30:46.583Z</time>
      </trkpt>
      <trkpt lat="42.71708" lon="0.65261">
        <ele>1453</ele>
        <time>2016-09-24T05:31:16.583Z</time>
      </trkpt>
      <trkpt lat="42.71704" lon="0.65246">
        <ele>1452</ele>
        <time>2016-09-24T05:31:41.583Z</time>
      </trkpt>
      <trkpt lat="42.71693" lon="0.65238">
        <ele>1452.9548874528</ele>
        <time>2016-09-24T05:31:51.583Z</time>
      </trkpt>
      <trkpt lat="42.71682" lon="0.65238">
        <ele>1453</ele>
        <time>2016-09-24T05:31:57.583Z</time>
      </trkpt>
      <trkpt lat="42.7167" lon="0.65233">
        <ele>1453</ele>
        <time>2016-09-24T05:32:05.583Z</time>
      </trkpt>
      <trkpt lat="42.71659" lon="0.65231">
        <ele>1454</ele>
        <time>2016-09-24T05:32:16.583Z</time>
      </trkpt>
      <trkpt lat="42.71648" lon="0.65228">
        <ele>1454</ele>
        <time>2016-09-24T05:32:24.583Z</time>
      </trkpt>
      <trkpt lat="42.71637" lon="0.65224">
        <ele>1456</ele>
        <time>2016-09-24T05:32:33.583Z</time>
      </trkpt>
      <trkpt lat="42.71627" lon="0.65217">
        <ele>1458</ele>
        <time>2016-09-24T05:32:41.583Z</time>
      </trkpt>
      <trkpt lat="42.71614" lon="0.6521">
        <ele>1458</ele>
        <time>2016-09-24T05:32:51.583Z</time>
      </trkpt>
      <trkpt lat="42.71604" lon="0.65204">
        <ele>1459</ele>
        <time>2016-09-24T05:32:58.583Z</time>
      </trkpt>
      <trkpt lat="42.71595" lon="0.65194">
        <ele>1461</ele>
        <time>2016-09-24T05:33:09.583Z</time>
      </trkpt>
      <trkpt lat="42.71589" lon="0.65184">
        <ele>1463</ele>
        <time>2016-09-24T05:33:18.684Z</time>
      </trkpt>
      <trkpt lat="42.71583" lon="0.65173">
        <ele>1464</ele>
        <time>2016-09-24T05:33:27.583Z</time>
      </trkpt>
      <trkpt lat="42.71591" lon="0.65165">
        <ele>1464</ele>
        <time>2016-09-24T05:33:34.583Z</time>
      </trkpt>
      <trkpt lat="42.71593" lon="0.65152">
        <ele>1464</ele>
        <time>2016-09-24T05:33:43.583Z</time>
      </trkpt>
      <trkpt lat="42.71589" lon="0.65141">
        <ele>1465</ele>
        <time>2016-09-24T05:33:58.658Z</time>
      </trkpt>
      <trkpt lat="42.71594" lon="0.65128">
        <ele>1467</ele>
        <time>2016-09-24T05:34:05.583Z</time>
      </trkpt>
      <trkpt lat="42.7158" lon="0.65123">
        <ele>1470</ele>
        <time>2016-09-24T05:34:26.583Z</time>
      </trkpt>
      <trkpt lat="42.71576" lon="0.65111">
        <ele>1472</ele>
        <time>2016-09-24T05:34:33.558Z</time>
      </trkpt>
      <trkpt lat="42.71565" lon="0.65119">
        <ele>1474</ele>
        <time>2016-09-24T05:34:40.614Z</time>
      </trkpt>
      <trkpt lat="42.71552" lon="0.65119">
        <ele>1477</ele>
        <time>2016-09-24T05:34:53.583Z</time>
      </trkpt>
      <trkpt lat="42.71541" lon="0.65119">
        <ele>1478</ele>
        <time>2016-09-24T05:35:02.583Z</time>
      </trkpt>
      <trkpt lat="42.71533" lon="0.65111">
        <ele>1480</ele>
        <time>2016-09-24T05:35:11.583Z</time>
      </trkpt>
      <trkpt lat="42.71535" lon="0.65129">
        <ele>1480</ele>
        <time>2016-09-24T05:35:18.553Z</time>
      </trkpt>
      <trkpt lat="42.71526" lon="0.65123">
        <ele>1484</ele>
        <time>2016-09-24T05:35:27.583Z</time>
      </trkpt>
      <trkpt lat="42.71525" lon="0.65109">
        <ele>1484</ele>
        <time>2016-09-24T05:35:31.580Z</time>
      </trkpt>
      <trkpt lat="42.71515" lon="0.65101">
        <ele>1485</ele>
        <time>2016-09-24T05:35:55.583Z</time>
      </trkpt>
      <trkpt lat="42.71504" lon="0.65096">
        <ele>1488</ele>
        <time>2016-09-24T05:36:24.608Z</time>
      </trkpt>
      <trkpt lat="42.71493" lon="0.65087">
        <ele>1488</ele>
        <time>2016-09-24T05:36:38.586Z</time>
      </trkpt>
      <trkpt lat="42.71488" lon="0.65078">
        <ele>1490</ele>
        <time>2016-09-24T05:36:50.557Z</time>
      </trkpt>
      <trkpt lat="42.71477" lon="0.65077">
        <ele>1495</ele>
        <time>2016-09-24T05:37:00.583Z</time>
      </trkpt>
      <trkpt lat="42.7147" lon="0.65069">
        <ele>1497.9267437187</ele>
        <time>2016-09-24T05:37:10.583Z</time>
      </trkpt>
      <trkpt lat="42.7146" lon="0.65064">
        <ele>1499</ele>
        <time>2016-09-24T05:37:17.583Z</time>
      </trkpt>
      <trkpt lat="42.71458" lon="0.65052">
        <ele>1499</ele>
        <time>2016-09-24T05:37:30.583Z</time>
      </trkpt>
      <trkpt lat="42.7145" lon="0.65046">
        <ele>1500.7221372662</ele>
        <time>2016-09-24T05:37:36.583Z</time>
      </trkpt>
      <trkpt lat="42.71441" lon="0.65041">
        <ele>1501</ele>
        <time>2016-09-24T05:37:43.583Z</time>
      </trkpt>
      <trkpt lat="42.71432" lon="0.65033">
        <ele>1503</ele>
        <time>2016-09-24T05:37:53.583Z</time>
      </trkpt>
      <trkpt lat="42.71424" lon="0.65027">
        <ele>1507</ele>
        <time>2016-09-24T05:38:01.583Z</time>
      </trkpt>
      <trkpt lat="42.7141" lon="0.65025">
        <ele>1510</ele>
        <time>2016-09-24T05:38:18.657Z</time>
      </trkpt>
      <trkpt lat="42.71399" lon="0.6503">
        <ele>1511.9440128</ele>
        <time>2016-09-24T05:38:25.582Z</time>
      </trkpt>
      <trkpt lat="42.71387" lon="0.65041">
        <ele>1516</ele>
        <time>2016-09-24T05:38:46.583Z</time>
      </trkpt>
      <trkpt lat="42.7138" lon="0.65049">
        <ele>1516</ele>
        <time>2016-09-24T05:38:51.612Z</time>
      </trkpt>
      <trkpt lat="42.71371" lon="0.65057">
        <ele>1519</ele>
        <time>2016-09-24T05:39:05.583Z</time>
      </trkpt>
      <trkpt lat="42.71346" lon="0.6507">
        <ele>1522</ele>
        <time>2016-09-24T05:39:21.583Z</time>
      </trkpt>
      <trkpt lat="42.71331" lon="0.65071">
        <ele>1524</ele>
        <time>2016-09-24T05:39:29.583Z</time>
      </trkpt>
      <trkpt lat="42.71322" lon="0.65084">
        <ele>1527</ele>
        <time>2016-09-24T05:39:38.582Z</time>
      </trkpt>
      <trkpt lat="42.71312" lon="0.65082">
        <ele>1528</ele>
        <time>2016-09-24T05:39:44.583Z</time>
      </trkpt>
      <trkpt lat="42.71319" lon="0.65072">
        <ele>1528</ele>
        <time>2016-09-24T05:39:48.583Z</time>
      </trkpt>
      <trkpt lat="42.7131" lon="0.65069">
        <ele>1528</ele>
        <time>2016-09-24T05:39:53.583Z</time>
      </trkpt>
      <trkpt lat="42.71302" lon="0.65062">
        <ele>1532</ele>
        <time>2016-09-24T05:40:03.583Z</time>
      </trkpt>
      <trkpt lat="42.71293" lon="0.65056">
        <ele>1532</ele>
        <time>2016-09-24T05:40:12.583Z</time>
      </trkpt>
      <trkpt lat="42.71284" lon="0.65057">
        <ele>1534</ele>
        <time>2016-09-24T05:40:18.583Z</time>
      </trkpt>
      <trkpt lat="42.71276" lon="0.65044">
        <ele>1538</ele>
        <time>2016-09-24T05:40:32.583Z</time>
      </trkpt>
      <trkpt lat="42.71282" lon="0.65029">
        <ele>1538</ele>
        <time>2016-09-24T05:40:35.583Z</time>
      </trkpt>
      <trkpt lat="42.71286" lon="0.65016">
        <ele>1538</ele>
        <time>2016-09-24T05:40:39.583Z</time>
      </trkpt>
      <trkpt lat="42.71285" lon="0.65004">
        <ele>1540</ele>
        <time>2016-09-24T05:40:46.583Z</time>
      </trkpt>
      <trkpt lat="42.71286" lon="0.64991">
        <ele>1542</ele>
        <time>2016-09-24T05:40:58.485Z</time>
      </trkpt>
      <trkpt lat="42.71291" lon="0.64978">
        <ele>1545</ele>
        <time>2016-09-24T05:41:05.583Z</time>
      </trkpt>
      <trkpt lat="42.71288" lon="0.64964">
        <ele>1547</ele>
        <time>2016-09-24T05:41:13.583Z</time>
      </trkpt>
      <trkpt lat="42.71279" lon="0.64956">
        <ele>1547</ele>
        <time>2016-09-24T05:41:20.583Z</time>
      </trkpt>
      <trkpt lat="42.7127" lon="0.64964">
        <ele>1551</ele>
        <time>2016-09-24T05:41:37.583Z</time>
      </trkpt>
      <trkpt lat="42.71261" lon="0.64969">
        <ele>1554</ele>
        <time>2016-09-24T05:41:46.558Z</time>
      </trkpt>
      <trkpt lat="42.71246" lon="0.6497">
        <ele>1557</ele>
        <time>2016-09-24T05:42:08.583Z</time>
      </trkpt>
      <trkpt lat="42.71241" lon="0.64957">
        <ele>1558</ele>
        <time>2016-09-24T05:42:55.583Z</time>
      </trkpt>
      <trkpt lat="42.71244" lon="0.64945">
        <ele>1560.9079709091</ele>
        <time>2016-09-24T05:43:00.583Z</time>
      </trkpt>
      <trkpt lat="42.71249" lon="0.64932">
        <ele>1562</ele>
        <time>2016-09-24T05:43:09.583Z</time>
      </trkpt>
      <trkpt lat="42.7125" lon="0.6492">
        <ele>1563</ele>
        <time>2016-09-24T05:43:18.583Z</time>
      </trkpt>
      <trkpt lat="42.71257" lon="0.64911">
        <ele>1565</ele>
        <time>2016-09-24T05:43:29.583Z</time>
      </trkpt>
      <trkpt lat="42.71267" lon="0.64906">
        <ele>1567</ele>
        <time>2016-09-24T05:43:37.583Z</time>
      </trkpt>
      <trkpt lat="42.71275" lon="0.64899">
        <ele>1569</ele>
        <time>2016-09-24T05:43:46.583Z</time>
      </trkpt>
      <trkpt lat="42.71284" lon="0.64893">
        <ele>1571</ele>
        <time>2016-09-24T05:43:56.583Z</time>
      </trkpt>
      <trkpt lat="42.71293" lon="0.64887">
        <ele>1572</ele>
        <time>2016-09-24T05:44:04.583Z</time>
      </trkpt>
      <trkpt lat="42.71296" lon="0.64875">
        <ele>1574</ele>
        <time>2016-09-24T05:44:15.583Z</time>
      </trkpt>
      <trkpt lat="42.71283" lon="0.64888">
        <ele>1578</ele>
        <time>2016-09-24T05:44:33.554Z</time>
      </trkpt>
      <trkpt lat="42.71281" lon="0.64876">
        <ele>1581</ele>
        <time>2016-09-24T05:44:47.583Z</time>
      </trkpt>
      <trkpt lat="42.71288" lon="0.6489">
        <ele>1581</ele>
        <time>2016-09-24T05:44:54.583Z</time>
      </trkpt>
      <trkpt lat="42.71279" lon="0.64883">
        <ele>1581</ele>
        <time>2016-09-24T05:45:09.583Z</time>
      </trkpt>
      <trkpt lat="42.71268" lon="0.64876">
        <ele>1582</ele>
        <time>2016-09-24T05:45:20.610Z</time>
      </trkpt>
      <trkpt lat="42.71269" lon="0.64888">
        <ele>1584</ele>
        <time>2016-09-24T05:45:28.554Z</time>
      </trkpt>
      <trkpt lat="42.7126" lon="0.6488">
        <ele>1586</ele>
        <time>2016-09-24T05:45:36.583Z</time>
      </trkpt>
      <trkpt lat="42.71251" lon="0.64879">
        <ele>1587</ele>
        <time>2016-09-24T05:45:46.610Z</time>
      </trkpt>
      <trkpt lat="42.71242" lon="0.64867">
        <ele>1589</ele>
        <time>2016-09-24T05:45:55.583Z</time>
      </trkpt>
      <trkpt lat="42.71232" lon="0.64867">
        <ele>1592</ele>
        <time>2016-09-24T05:46:04.583Z</time>
      </trkpt>
      <trkpt lat="42.71228" lon="0.64879">
        <ele>1593</ele>
        <time>2016-09-24T05:46:12.582Z</time>
      </trkpt>
      <trkpt lat="42.7122" lon="0.64872">
        <ele>1595</ele>
        <time>2016-09-24T05:46:25.583Z</time>
      </trkpt>
      <trkpt lat="42.71211" lon="0.6487">
        <ele>1597</ele>
        <time>2016-09-24T05:46:33.583Z</time>
      </trkpt>
      <trkpt lat="42.71202" lon="0.64864">
        <ele>1599.9090046167</ele>
        <time>2016-09-24T05:46:40.583Z</time>
      </trkpt>
      <trkpt lat="42.71193" lon="0.64851">
        <ele>1601.9706573913</ele>
        <time>2016-09-24T05:46:51.583Z</time>
      </trkpt>
      <trkpt lat="42.71183" lon="0.64849">
        <ele>1603</ele>
        <time>2016-09-24T05:47:04.583Z</time>
      </trkpt>
      <trkpt lat="42.71173" lon="0.64848">
        <ele>1605</ele>
        <time>2016-09-24T05:47:13.583Z</time>
      </trkpt>
      <trkpt lat="42.71163" lon="0.64847">
        <ele>1608</ele>
        <time>2016-09-24T05:47:22.583Z</time>
      </trkpt>
      <trkpt lat="42.71155" lon="0.64841">
        <ele>1611</ele>
        <time>2016-09-24T05:47:56.583Z</time>
      </trkpt>
      <trkpt lat="42.71146" lon="0.64842">
        <ele>1614</ele>
        <time>2016-09-24T05:48:02.583Z</time>
      </trkpt>
      <trkpt lat="42.71136" lon="0.64842">
        <ele>1617</ele>
        <time>2016-09-24T05:48:14.583Z</time>
      </trkpt>
      <trkpt lat="42.71129" lon="0.64834">
        <ele>1621.9460096</ele>
        <time>2016-09-24T05:48:26.583Z</time>
      </trkpt>
      <trkpt lat="42.71116" lon="0.64846">
        <ele>1624</ele>
        <time>2016-09-24T05:48:40.583Z</time>
      </trkpt>
      <trkpt lat="42.71107" lon="0.6484">
        <ele>1627</ele>
        <time>2016-09-24T05:48:52.583Z</time>
      </trkpt>
      <trkpt lat="42.71098" lon="0.64839">
        <ele>1629.8845446717</ele>
        <time>2016-09-24T05:49:00.583Z</time>
      </trkpt>
      <trkpt lat="42.71088" lon="0.64838">
        <ele>1630</ele>
        <time>2016-09-24T05:49:08.583Z</time>
      </trkpt>
      <trkpt lat="42.71078" lon="0.64831">
        <ele>1633</ele>
        <time>2016-09-24T05:49:16.583Z</time>
      </trkpt>
      <trkpt lat="42.71071" lon="0.64837">
        <ele>1633</ele>
        <time>2016-09-24T05:49:19.583Z</time>
      </trkpt>
      <trkpt lat="42.71069" lon="0.64854">
        <ele>1632</ele>
        <time>2016-09-24T05:49:31.583Z</time>
      </trkpt>
      <trkpt lat="42.71075" lon="0.64844">
        <ele>1632</ele>
        <time>2016-09-24T05:49:38.583Z</time>
      </trkpt>
      <trkpt lat="42.7108" lon="0.64832">
        <ele>1634</ele>
        <time>2016-09-24T05:49:46.583Z</time>
      </trkpt>
      <trkpt lat="42.71071" lon="0.64833">
        <ele>1636</ele>
        <time>2016-09-24T05:50:21.583Z</time>
      </trkpt>
      <trkpt lat="42.71069" lon="0.64847">
        <ele>1637</ele>
        <time>2016-09-24T05:51:08.583Z</time>
      </trkpt>
      <trkpt lat="42.7107" lon="0.64835">
        <ele>1636</ele>
        <time>2016-09-24T05:52:53.583Z</time>
      </trkpt>
      <trkpt lat="42.71077" lon="0.64825">
        <ele>1636</ele>
        <time>2016-09-24T05:52:57.583Z</time>
      </trkpt>
      <trkpt lat="42.71082" lon="0.64815">
        <ele>1635</ele>
        <time>2016-09-24T05:53:01.583Z</time>
      </trkpt>
      <trkpt lat="42.71089" lon="0.64807">
        <ele>1635</ele>
        <time>2016-09-24T05:53:08.583Z</time>
      </trkpt>
      <trkpt lat="42.71081" lon="0.64801">
        <ele>1640</ele>
        <time>2016-09-24T05:53:21.583Z</time>
      </trkpt>
      <trkpt lat="42.71071" lon="0.64801">
        <ele>1642.9712815066</ele>
        <time>2016-09-24T05:53:30.583Z</time>
      </trkpt>
      <trkpt lat="42.71074" lon="0.64787">
        <ele>1645</ele>
        <time>2016-09-24T05:53:38.583Z</time>
      </trkpt>
      <trkpt lat="42.71065" lon="0.64781">
        <ele>1649</ele>
        <time>2016-09-24T05:53:59.583Z</time>
      </trkpt>
      <trkpt lat="42.71055" lon="0.6478">
        <ele>1651</ele>
        <time>2016-09-24T05:54:06.583Z</time>
      </trkpt>
      <trkpt lat="42.71054" lon="0.64766">
        <ele>1655</ele>
        <time>2016-09-24T05:54:26.583Z</time>
      </trkpt>
      <trkpt lat="42.71064" lon="0.64761">
        <ele>1657</ele>
        <time>2016-09-24T05:54:34.583Z</time>
      </trkpt>
      <trkpt lat="42.71055" lon="0.64762">
        <ele>1660</ele>
        <time>2016-09-24T05:54:43.583Z</time>
      </trkpt>
      <trkpt lat="42.71046" lon="0.64758">
        <ele>1663</ele>
        <time>2016-09-24T05:54:53.583Z</time>
      </trkpt>
      <trkpt lat="42.71039" lon="0.64746">
        <ele>1666</ele>
        <time>2016-09-24T05:55:11.583Z</time>
      </trkpt>
      <trkpt lat="42.7103" lon="0.64743">
        <ele>1666</ele>
        <time>2016-09-24T05:55:18.583Z</time>
      </trkpt>
      <trkpt lat="42.71033" lon="0.64732">
        <ele>1667</ele>
        <time>2016-09-24T05:55:30.583Z</time>
      </trkpt>
      <trkpt lat="42.71041" lon="0.64738">
        <ele>1669</ele>
        <time>2016-09-24T05:55:41.583Z</time>
      </trkpt>
      <trkpt lat="42.71031" lon="0.64735">
        <ele>1671</ele>
        <time>2016-09-24T05:55:48.583Z</time>
      </trkpt>
      <trkpt lat="42.71021" lon="0.64739">
        <ele>1673</ele>
        <time>2016-09-24T05:55:57.583Z</time>
      </trkpt>
      <trkpt lat="42.71012" lon="0.64736">
        <ele>1674</ele>
        <time>2016-09-24T05:56:02.583Z</time>
      </trkpt>
      <trkpt lat="42.71002" lon="0.64731">
        <ele>1675</ele>
        <time>2016-09-24T05:56:09.583Z</time>
      </trkpt>
      <trkpt lat="42.70993" lon="0.64733">
        <ele>1676</ele>
        <time>2016-09-24T05:56:15.583Z</time>
      </trkpt>
      <trkpt lat="42.70993" lon="0.6472">
        <ele>1677</ele>
        <time>2016-09-24T05:56:23.583Z</time>
      </trkpt>
      <trkpt lat="42.71003" lon="0.64714">
        <ele>1677</ele>
        <time>2016-09-24T05:56:27.583Z</time>
      </trkpt>
      <trkpt lat="42.71012" lon="0.64713">
        <ele>1678</ele>
        <time>2016-09-24T05:56:32.583Z</time>
      </trkpt>
      <trkpt lat="42.71022" lon="0.64712">
        <ele>1678</ele>
        <time>2016-09-24T05:56:37.583Z</time>
      </trkpt>
      <trkpt lat="42.71013" lon="0.64711">
        <ele>1684</ele>
        <time>2016-09-24T05:56:53.583Z</time>
      </trkpt>
      <trkpt lat="42.71004" lon="0.64703">
        <ele>1685</ele>
        <time>2016-09-24T05:57:05.583Z</time>
      </trkpt>
      <trkpt lat="42.70995" lon="0.64698">
        <ele>1687</ele>
        <time>2016-09-24T05:57:14.583Z</time>
      </trkpt>
      <trkpt lat="42.70985" lon="0.64702">
        <ele>1690</ele>
        <time>2016-09-24T05:57:21.583Z</time>
      </trkpt>
      <trkpt lat="42.70975" lon="0.64701">
        <ele>1690</ele>
        <time>2016-09-24T05:57:29.583Z</time>
      </trkpt>
      <trkpt lat="42.70966" lon="0.64697">
        <ele>1692</ele>
        <time>2016-09-24T05:57:37.583Z</time>
      </trkpt>
      <trkpt lat="42.70966" lon="0.64682">
        <ele>1693</ele>
        <time>2016-09-24T05:57:42.583Z</time>
      </trkpt>
      <trkpt lat="42.70975" lon="0.64675">
        <ele>1695</ele>
        <time>2016-09-24T05:57:51.583Z</time>
      </trkpt>
      <trkpt lat="42.70985" lon="0.64675">
        <ele>1696</ele>
        <time>2016-09-24T05:57:58.583Z</time>
      </trkpt>
      <trkpt lat="42.70994" lon="0.64673">
        <ele>1697</ele>
        <time>2016-09-24T05:58:07.583Z</time>
      </trkpt>
      <trkpt lat="42.70987" lon="0.64662">
        <ele>1701.7537705433</ele>
        <time>2016-09-24T05:58:20.583Z</time>
      </trkpt>
      <trkpt lat="42.70979" lon="0.64656">
        <ele>1702</ele>
        <time>2016-09-24T05:58:28.583Z</time>
      </trkpt>
      <trkpt lat="42.70969" lon="0.64655">
        <ele>1705</ele>
        <time>2016-09-24T05:58:37.583Z</time>
      </trkpt>
      <trkpt lat="42.7096" lon="0.64657">
        <ele>1706</ele>
        <time>2016-09-24T05:58:47.583Z</time>
      </trkpt>
      <trkpt lat="42.70951" lon="0.64653">
        <ele>1708</ele>
        <time>2016-09-24T05:58:55.583Z</time>
      </trkpt>
      <trkpt lat="42.70946" lon="0.64642">
        <ele>1710</ele>
        <time>2016-09-24T05:59:04.583Z</time>
      </trkpt>
      <trkpt lat="42.70953" lon="0.64636">
        <ele>1712</ele>
        <time>2016-09-24T05:59:14.583Z</time>
      </trkpt>
      <trkpt lat="42.70963" lon="0.64633">
        <ele>1713</ele>
        <time>2016-09-24T05:59:24.583Z</time>
      </trkpt>
      <trkpt lat="42.70973" lon="0.64631">
        <ele>1715</ele>
        <time>2016-09-24T05:59:31.583Z</time>
      </trkpt>
      <trkpt lat="42.70983" lon="0.64619">
        <ele>1717</ele>
        <time>2016-09-24T05:59:41.613Z</time>
      </trkpt>
      <trkpt lat="42.70991" lon="0.6461">
        <ele>1719</ele>
        <time>2016-09-24T05:59:56.609Z</time>
      </trkpt>
      <trkpt lat="42.71" lon="0.64622">
        <ele>1720</ele>
        <time>2016-09-24T06:00:09.583Z</time>
      </trkpt>
      <trkpt lat="42.70988" lon="0.64609">
        <ele>1724</ele>
        <time>2016-09-24T06:00:25.583Z</time>
      </trkpt>
      <trkpt lat="42.70981" lon="0.64618">
        <ele>1726</ele>
        <time>2016-09-24T06:00:49.583Z</time>
      </trkpt>
      <trkpt lat="42.70972" lon="0.64628">
        <ele>1726</ele>
        <time>2016-09-24T06:01:20.583Z</time>
      </trkpt>
      <trkpt lat="42.70963" lon="0.6463">
        <ele>1727</ele>
        <time>2016-09-24T06:01:25.583Z</time>
      </trkpt>
      <trkpt lat="42.70953" lon="0.64631">
        <ele>1730</ele>
        <time>2016-09-24T06:01:44.583Z</time>
      </trkpt>
      <trkpt lat="42.70942" lon="0.6463">
        <ele>1735</ele>
        <time>2016-09-24T06:02:03.613Z</time>
      </trkpt>
      <trkpt lat="42.70935" lon="0.6462">
        <ele>1737</ele>
        <time>2016-09-24T06:02:13.583Z</time>
      </trkpt>
      <trkpt lat="42.70924" lon="0.64621">
        <ele>1737</ele>
        <time>2016-09-24T06:02:15.583Z</time>
      </trkpt>
      <trkpt lat="42.70914" lon="0.64621">
        <ele>1739</ele>
        <time>2016-09-24T06:02:29.583Z</time>
      </trkpt>
      <trkpt lat="42.70907" lon="0.64611">
        <ele>1742</ele>
        <time>2016-09-24T06:02:54.583Z</time>
      </trkpt>
      <trkpt lat="42.70914" lon="0.64602">
        <ele>1744</ele>
        <time>2016-09-24T06:03:11.583Z</time>
      </trkpt>
      <trkpt lat="42.70922" lon="0.64597">
        <ele>1746</ele>
        <time>2016-09-24T06:03:29.583Z</time>
      </trkpt>
      <trkpt lat="42.70913" lon="0.64591">
        <ele>1749</ele>
        <time>2016-09-24T06:03:48.583Z</time>
      </trkpt>
      <trkpt lat="42.70905" lon="0.64577">
        <ele>1753</ele>
        <time>2016-09-24T06:04:18.583Z</time>
      </trkpt>
      <trkpt lat="42.70896" lon="0.64574">
        <ele>1758</ele>
        <time>2016-09-24T06:04:35.583Z</time>
      </trkpt>
      <trkpt lat="42.70886" lon="0.64575">
        <ele>1758</ele>
        <time>2016-09-24T06:04:41.583Z</time>
      </trkpt>
      <trkpt lat="42.70877" lon="0.6458">
        <ele>1758.9730048</ele>
        <time>2016-09-24T06:04:50.583Z</time>
      </trkpt>
      <trkpt lat="42.70868" lon="0.64578">
        <ele>1759</ele>
        <time>2016-09-24T06:05:08.583Z</time>
      </trkpt>
      <trkpt lat="42.70858" lon="0.64574">
        <ele>1760</ele>
        <time>2016-09-24T06:05:18.583Z</time>
      </trkpt>
      <trkpt lat="42.70844" lon="0.64574">
        <ele>1765</ele>
        <time>2016-09-24T06:05:32.583Z</time>
      </trkpt>
      <trkpt lat="42.70835" lon="0.64577">
        <ele>1767</ele>
        <time>2016-09-24T06:05:41.583Z</time>
      </trkpt>
      <trkpt lat="42.70828" lon="0.64589">
        <ele>1769</ele>
        <time>2016-09-24T06:05:48.613Z</time>
      </trkpt>
      <trkpt lat="42.7082" lon="0.64596">
        <ele>1770</ele>
        <time>2016-09-24T06:05:53.583Z</time>
      </trkpt>
      <trkpt lat="42.70815" lon="0.64606">
        <ele>1770.0940032</ele>
        <time>2016-09-24T06:06:29.657Z</time>
      </trkpt>
      <trkpt lat="42.70803" lon="0.64606">
        <ele>1772</ele>
        <time>2016-09-24T06:06:36.584Z</time>
      </trkpt>
      <trkpt lat="42.70793" lon="0.6461">
        <ele>1777</ele>
        <time>2016-09-24T06:06:57.583Z</time>
      </trkpt>
      <trkpt lat="42.70784" lon="0.64615">
        <ele>1776.1612027586</ele>
        <time>2016-09-24T06:07:30.583Z</time>
      </trkpt>
      <trkpt lat="42.70794" lon="0.64617">
        <ele>1777</ele>
        <time>2016-09-24T06:09:32.583Z</time>
      </trkpt>
      <trkpt lat="42.70783" lon="0.64604">
        <ele>1778</ele>
        <time>2016-09-24T06:12:04.583Z</time>
      </trkpt>
      <trkpt lat="42.70773" lon="0.64596">
        <ele>1778</ele>
        <time>2016-09-24T06:12:16.583Z</time>
      </trkpt>
      <trkpt lat="42.70764" lon="0.64595">
        <ele>1780</ele>
        <time>2016-09-24T06:12:22.583Z</time>
      </trkpt>
      <trkpt lat="42.70755" lon="0.64598">
        <ele>1780</ele>
        <time>2016-09-24T06:12:29.583Z</time>
      </trkpt>
      <trkpt lat="42.70746" lon="0.64596">
        <ele>1782</ele>
        <time>2016-09-24T06:12:36.583Z</time>
      </trkpt>
      <trkpt lat="42.70736" lon="0.646">
        <ele>1783</ele>
        <time>2016-09-24T06:12:46.583Z</time>
      </trkpt>
      <trkpt lat="42.70727" lon="0.64603">
        <ele>1784</ele>
        <time>2016-09-24T06:12:55.583Z</time>
      </trkpt>
      <trkpt lat="42.70717" lon="0.64605">
        <ele>1787</ele>
        <time>2016-09-24T06:13:04.583Z</time>
      </trkpt>
      <trkpt lat="42.70708" lon="0.64608">
        <ele>1788</ele>
        <time>2016-09-24T06:13:13.583Z</time>
      </trkpt>
      <trkpt lat="42.70705" lon="0.64623">
        <ele>1788</ele>
        <time>2016-09-24T06:13:29.583Z</time>
      </trkpt>
      <trkpt lat="42.70698" lon="0.6464">
        <ele>1788</ele>
        <time>2016-09-24T06:13:46.585Z</time>
      </trkpt>
      <trkpt lat="42.70708" lon="0.64651">
        <ele>1790</ele>
        <time>2016-09-24T06:13:58.584Z</time>
      </trkpt>
      <trkpt lat="42.70709" lon="0.64665">
        <ele>1792</ele>
        <time>2016-09-24T06:14:06.579Z</time>
      </trkpt>
      <trkpt lat="42.7071" lon="0.64678">
        <ele>1794</ele>
        <time>2016-09-24T06:14:33.583Z</time>
      </trkpt>
      <trkpt lat="42.7072" lon="0.64712">
        <ele>1797</ele>
        <time>2016-09-24T06:14:54.584Z</time>
      </trkpt>
      <trkpt lat="42.70717" lon="0.64727">
        <ele>1805</ele>
        <time>2016-09-24T06:15:47.583Z</time>
      </trkpt>
      <trkpt lat="42.70721" lon="0.64772">
        <ele>1817</ele>
        <time>2016-09-24T06:16:51.583Z</time>
      </trkpt>
      <trkpt lat="42.70713" lon="0.64769">
        <ele>1819</ele>
        <time>2016-09-24T06:17:18.583Z</time>
      </trkpt>
      <trkpt lat="42.70699" lon="0.64756">
        <ele>1821</ele>
        <time>2016-09-24T06:17:30.583Z</time>
      </trkpt>
      <trkpt lat="42.70703" lon="0.64772">
        <ele>1824</ele>
        <time>2016-09-24T06:17:54.583Z</time>
      </trkpt>
      <trkpt lat="42.70704" lon="0.64785">
        <ele>1826</ele>
        <time>2016-09-24T06:18:06.556Z</time>
      </trkpt>
      <trkpt lat="42.70704" lon="0.64799">
        <ele>1829</ele>
        <time>2016-09-24T06:18:16.556Z</time>
      </trkpt>
      <trkpt lat="42.70691" lon="0.64798">
        <ele>1832</ele>
        <time>2016-09-24T06:18:33.583Z</time>
      </trkpt>
      <trkpt lat="42.70695" lon="0.64787">
        <ele>1834</ele>
        <time>2016-09-24T06:18:45.583Z</time>
      </trkpt>
      <trkpt lat="42.70691" lon="0.64776">
        <ele>1836</ele>
        <time>2016-09-24T06:18:54.583Z</time>
      </trkpt>
      <trkpt lat="42.70688" lon="0.64762">
        <ele>1838</ele>
        <time>2016-09-24T06:19:02.583Z</time>
      </trkpt>
      <trkpt lat="42.70678" lon="0.64764">
        <ele>1838.0234711737</ele>
        <time>2016-09-24T06:19:10.653Z</time>
      </trkpt>
      <trkpt lat="42.70681" lon="0.64779">
        <ele>1839</ele>
        <time>2016-09-24T06:22:25.385Z</time>
      </trkpt>
      <trkpt lat="42.70683" lon="0.64762">
        <ele>1839</ele>
        <time>2016-09-24T06:23:08.583Z</time>
      </trkpt>
      <trkpt lat="42.70677" lon="0.64752">
        <ele>1839</ele>
        <time>2016-09-24T06:24:34.583Z</time>
      </trkpt>
      <trkpt lat="42.70672" lon="0.64765">
        <ele>1839</ele>
        <time>2016-09-24T06:25:14.583Z</time>
      </trkpt>
      <trkpt lat="42.70679" lon="0.64776">
        <ele>1840</ele>
        <time>2016-09-24T06:25:24.583Z</time>
      </trkpt>
      <trkpt lat="42.70684" lon="0.64789">
        <ele>1841.9381639197</ele>
        <time>2016-09-24T06:25:41.580Z</time>
      </trkpt>
      <trkpt lat="42.70676" lon="0.64797">
        <ele>1844</ele>
        <time>2016-09-24T06:25:53.583Z</time>
      </trkpt>
      <trkpt lat="42.70661" lon="0.648">
        <ele>1849</ele>
        <time>2016-09-24T06:27:27.583Z</time>
      </trkpt>
      <trkpt lat="42.70644" lon="0.64796">
        <ele>1860.072</ele>
        <time>2016-09-24T06:28:05.682Z</time>
      </trkpt>
      <trkpt lat="42.70648" lon="0.64785">
        <ele>1862</ele>
        <time>2016-09-24T06:28:25.584Z</time>
      </trkpt>
      <trkpt lat="42.70632" lon="0.64781">
        <ele>1867</ele>
        <time>2016-09-24T06:28:39.657Z</time>
      </trkpt>
      <trkpt lat="42.70624" lon="0.64775">
        <ele>1875</ele>
        <time>2016-09-24T06:29:27.583Z</time>
      </trkpt>
      <trkpt lat="42.70616" lon="0.64767">
        <ele>1877</ele>
        <time>2016-09-24T06:30:08.583Z</time>
      </trkpt>
      <trkpt lat="42.70613" lon="0.64755">
        <ele>1879</ele>
        <time>2016-09-24T06:30:29.583Z</time>
      </trkpt>
      <trkpt lat="42.70609" lon="0.64743">
        <ele>1881</ele>
        <time>2016-09-24T06:30:46.583Z</time>
      </trkpt>
      <trkpt lat="42.70612" lon="0.64729">
        <ele>1881</ele>
        <time>2016-09-24T06:30:58.583Z</time>
      </trkpt>
      <trkpt lat="42.70603" lon="0.64731">
        <ele>1886</ele>
        <time>2016-09-24T06:31:17.583Z</time>
      </trkpt>
      <trkpt lat="42.70599" lon="0.64749">
        <ele>1889</ele>
        <time>2016-09-24T06:31:34.585Z</time>
      </trkpt>
      <trkpt lat="42.70587" lon="0.64758">
        <ele>1896</ele>
        <time>2016-09-24T06:32:03.581Z</time>
      </trkpt>
      <trkpt lat="42.70596" lon="0.64775">
        <ele>1901</ele>
        <time>2016-09-24T06:32:35.583Z</time>
      </trkpt>
      <trkpt lat="42.70584" lon="0.64775">
        <ele>1902</ele>
        <time>2016-09-24T06:33:03.583Z</time>
      </trkpt>
      <trkpt lat="42.7059" lon="0.64784">
        <ele>1906</ele>
        <time>2016-09-24T06:34:04.583Z</time>
      </trkpt>
      <trkpt lat="42.70581" lon="0.6478">
        <ele>1909</ele>
        <time>2016-09-24T06:34:28.583Z</time>
      </trkpt>
      <trkpt lat="42.70572" lon="0.64773">
        <ele>1910</ele>
        <time>2016-09-24T06:34:36.583Z</time>
      </trkpt>
      <trkpt lat="42.70574" lon="0.64786">
        <ele>1914</ele>
        <time>2016-09-24T06:34:51.583Z</time>
      </trkpt>
      <trkpt lat="42.70577" lon="0.64799">
        <ele>1916</ele>
        <time>2016-09-24T06:35:05.583Z</time>
      </trkpt>
      <trkpt lat="42.70575" lon="0.64785">
        <ele>1920</ele>
        <time>2016-09-24T06:35:39.583Z</time>
      </trkpt>
      <trkpt lat="42.70564" lon="0.64785">
        <ele>1920</ele>
        <time>2016-09-24T06:35:44.583Z</time>
      </trkpt>
      <trkpt lat="42.70557" lon="0.64776">
        <ele>1923</ele>
        <time>2016-09-24T06:36:18.583Z</time>
      </trkpt>
      <trkpt lat="42.70553" lon="0.64764">
        <ele>1924</ele>
        <time>2016-09-24T06:36:33.583Z</time>
      </trkpt>
      <trkpt lat="42.70548" lon="0.64752">
        <ele>1924</ele>
        <time>2016-09-24T06:36:44.680Z</time>
      </trkpt>
      <trkpt lat="42.70554" lon="0.64738">
        <ele>1927</ele>
        <time>2016-09-24T06:37:13.683Z</time>
      </trkpt>
      <trkpt lat="42.70546" lon="0.6473">
        <ele>1928</ele>
        <time>2016-09-24T06:37:57.583Z</time>
      </trkpt>
      <trkpt lat="42.70537" lon="0.64735">
        <ele>1931</ele>
        <time>2016-09-24T06:38:19.583Z</time>
      </trkpt>
      <trkpt lat="42.70529" lon="0.64742">
        <ele>1934.7070163817</ele>
        <time>2016-09-24T06:38:30.583Z</time>
      </trkpt>
      <trkpt lat="42.70522" lon="0.64751">
        <ele>1935.00156</ele>
        <time>2016-09-24T06:38:40.611Z</time>
      </trkpt>
      <trkpt lat="42.70515" lon="0.64764">
        <ele>1939</ele>
        <time>2016-09-24T06:38:56.583Z</time>
      </trkpt>
      <trkpt lat="42.70513" lon="0.64776">
        <ele>1942</ele>
        <time>2016-09-24T06:39:08.584Z</time>
      </trkpt>
      <trkpt lat="42.7052" lon="0.64787">
        <ele>1944</ele>
        <time>2016-09-24T06:39:22.609Z</time>
      </trkpt>
      <trkpt lat="42.70526" lon="0.64798">
        <ele>1944</ele>
        <time>2016-09-24T06:39:29.581Z</time>
      </trkpt>
      <trkpt lat="42.70537" lon="0.64812">
        <ele>1945</ele>
        <time>2016-09-24T06:39:37.683Z</time>
      </trkpt>
      <trkpt lat="42.70543" lon="0.64825">
        <ele>1946</ele>
        <time>2016-09-24T06:39:42.583Z</time>
      </trkpt>
      <trkpt lat="42.70536" lon="0.64833">
        <ele>1951</ele>
        <time>2016-09-24T06:40:22.583Z</time>
      </trkpt>
      <trkpt lat="42.70531" lon="0.64823">
        <ele>1953</ele>
        <time>2016-09-24T06:40:47.583Z</time>
      </trkpt>
      <trkpt lat="42.70524" lon="0.64814">
        <ele>1953</ele>
        <time>2016-09-24T06:41:01.583Z</time>
      </trkpt>
      <trkpt lat="42.70518" lon="0.64805">
        <ele>1954</ele>
        <time>2016-09-24T06:41:12.583Z</time>
      </trkpt>
      <trkpt lat="42.70509" lon="0.64801">
        <ele>1955</ele>
        <time>2016-09-24T06:41:22.583Z</time>
      </trkpt>
      <trkpt lat="42.705" lon="0.64796">
        <ele>1957</ele>
        <time>2016-09-24T06:41:32.583Z</time>
      </trkpt>
      <trkpt lat="42.70498" lon="0.64783">
        <ele>1961</ele>
        <time>2016-09-24T06:41:54.680Z</time>
      </trkpt>
      <trkpt lat="42.70486" lon="0.6479">
        <ele>1961</ele>
        <time>2016-09-24T06:41:56.583Z</time>
      </trkpt>
      <trkpt lat="42.70493" lon="0.64778">
        <ele>1961</ele>
        <time>2016-09-24T06:42:00.583Z</time>
      </trkpt>
      <trkpt lat="42.70496" lon="0.64766">
        <ele>1961</ele>
        <time>2016-09-24T06:42:09.583Z</time>
      </trkpt>
      <trkpt lat="42.70501" lon="0.64755">
        <ele>1964</ele>
        <time>2016-09-24T06:42:21.583Z</time>
      </trkpt>
      <trkpt lat="42.705" lon="0.64742">
        <ele>1964</ele>
        <time>2016-09-24T06:42:29.583Z</time>
      </trkpt>
      <trkpt lat="42.70493" lon="0.64733">
        <ele>1965</ele>
        <time>2016-09-24T06:42:39.583Z</time>
      </trkpt>
      <trkpt lat="42.70493" lon="0.64745">
        <ele>1971</ele>
        <time>2016-09-24T06:43:17.584Z</time>
      </trkpt>
      <trkpt lat="42.70495" lon="0.64759">
        <ele>1972</ele>
        <time>2016-09-24T06:43:28.683Z</time>
      </trkpt>
      <trkpt lat="42.705" lon="0.64769">
        <ele>1973</ele>
        <time>2016-09-24T06:43:47.583Z</time>
      </trkpt>
      <trkpt lat="42.70491" lon="0.64778">
        <ele>1974</ele>
        <time>2016-09-24T06:43:56.583Z</time>
      </trkpt>
      <trkpt lat="42.7048" lon="0.64763">
        <ele>1974</ele>
        <time>2016-09-24T06:44:05.583Z</time>
      </trkpt>
      <trkpt lat="42.70475" lon="0.64752">
        <ele>1981</ele>
        <time>2016-09-24T06:44:53.583Z</time>
      </trkpt>
      <trkpt lat="42.70469" lon="0.64743">
        <ele>1983</ele>
        <time>2016-09-24T06:45:03.583Z</time>
      </trkpt>
      <trkpt lat="42.7047" lon="0.64757">
        <ele>1984</ele>
        <time>2016-09-24T06:45:21.583Z</time>
      </trkpt>
      <trkpt lat="42.70467" lon="0.64768">
        <ele>1986.8245758667</ele>
        <time>2016-09-24T06:45:31.583Z</time>
      </trkpt>
      <trkpt lat="42.70458" lon="0.64773">
        <ele>1987</ele>
        <time>2016-09-24T06:45:49.583Z</time>
      </trkpt>
      <trkpt lat="42.70453" lon="0.64761">
        <ele>1989</ele>
        <time>2016-09-24T06:46:33.683Z</time>
      </trkpt>
      <trkpt lat="42.70462" lon="0.64761">
        <ele>1989</ele>
        <time>2016-09-24T06:46:36.583Z</time>
      </trkpt>
      <trkpt lat="42.70458" lon="0.6475">
        <ele>1990</ele>
        <time>2016-09-24T06:46:44.583Z</time>
      </trkpt>
      <trkpt lat="42.70453" lon="0.64739">
        <ele>1991</ele>
        <time>2016-09-24T06:46:58.583Z</time>
      </trkpt>
      <trkpt lat="42.70445" lon="0.64759">
        <ele>1995</ele>
        <time>2016-09-24T06:47:18.683Z</time>
      </trkpt>
      <trkpt lat="42.70436" lon="0.64753">
        <ele>2003.9724536977</ele>
        <time>2016-09-24T06:47:55.583Z</time>
      </trkpt>
      <trkpt lat="42.70429" lon="0.64744">
        <ele>2004</ele>
        <time>2016-09-24T06:48:08.583Z</time>
      </trkpt>
      <trkpt lat="42.70436" lon="0.64754">
        <ele>2008</ele>
        <time>2016-09-24T06:48:25.583Z</time>
      </trkpt>
      <trkpt lat="42.70428" lon="0.64765">
        <ele>2012</ele>
        <time>2016-09-24T06:48:42.583Z</time>
      </trkpt>
      <trkpt lat="42.70421" lon="0.64771">
        <ele>2016</ele>
        <time>2016-09-24T06:48:54.583Z</time>
      </trkpt>
      <trkpt lat="42.7041" lon="0.64784">
        <ele>2019</ele>
        <time>2016-09-24T06:49:07.583Z</time>
      </trkpt>
      <trkpt lat="42.70393" lon="0.64787">
        <ele>2023</ele>
        <time>2016-09-24T06:49:45.583Z</time>
      </trkpt>
      <trkpt lat="42.70402" lon="0.64783">
        <ele>2023</ele>
        <time>2016-09-24T06:50:07.709Z</time>
      </trkpt>
      <trkpt lat="42.70411" lon="0.64781">
        <ele>2023</ele>
        <time>2016-09-24T06:50:26.583Z</time>
      </trkpt>
      <trkpt lat="42.70406" lon="0.64769">
        <ele>2023</ele>
        <time>2016-09-24T06:50:51.414Z</time>
      </trkpt>
      <trkpt lat="42.70408" lon="0.64787">
        <ele>2029</ele>
        <time>2016-09-24T06:51:22.681Z</time>
      </trkpt>
      <trkpt lat="42.704" lon="0.64781">
        <ele>2030.9400102401</ele>
        <time>2016-09-24T06:51:30.583Z</time>
      </trkpt>
      <trkpt lat="42.70395" lon="0.64771">
        <ele>2031</ele>
        <time>2016-09-24T06:51:49.583Z</time>
      </trkpt>
      <trkpt lat="42.70386" lon="0.64764">
        <ele>2034</ele>
        <time>2016-09-24T06:52:03.583Z</time>
      </trkpt>
      <trkpt lat="42.70384" lon="0.64751">
        <ele>2037</ele>
        <time>2016-09-24T06:52:13.583Z</time>
      </trkpt>
      <trkpt lat="42.70377" lon="0.6473">
        <ele>2040</ele>
        <time>2016-09-24T06:52:27.686Z</time>
      </trkpt>
      <trkpt lat="42.7038" lon="0.64717">
        <ele>2041</ele>
        <time>2016-09-24T06:52:46.583Z</time>
      </trkpt>
      <trkpt lat="42.70378" lon="0.64702">
        <ele>2042.9730048</ele>
        <time>2016-09-24T06:53:01.583Z</time>
      </trkpt>
      <trkpt lat="42.7038" lon="0.64687">
        <ele>2044</ele>
        <time>2016-09-24T06:53:30.583Z</time>
      </trkpt>
      <trkpt lat="42.70389" lon="0.64683">
        <ele>2045</ele>
        <time>2016-09-24T06:53:35.586Z</time>
      </trkpt>
      <trkpt lat="42.70397" lon="0.64673">
        <ele>2045</ele>
        <time>2016-09-24T06:53:49.681Z</time>
      </trkpt>
      <trkpt lat="42.70393" lon="0.64658">
        <ele>2048</ele>
        <time>2016-09-24T06:54:09.583Z</time>
      </trkpt>
      <trkpt lat="42.70387" lon="0.64647">
        <ele>2048.8820440448</ele>
        <time>2016-09-24T06:54:15.658Z</time>
      </trkpt>
      <trkpt lat="42.70392" lon="0.64635">
        <ele>2049</ele>
        <time>2016-09-24T06:54:29.583Z</time>
      </trkpt>
      <trkpt lat="42.70389" lon="0.64623">
        <ele>2049</ele>
        <time>2016-09-24T06:54:39.583Z</time>
      </trkpt>
      <trkpt lat="42.70384" lon="0.64607">
        <ele>2051</ele>
        <time>2016-09-24T06:54:50.682Z</time>
      </trkpt>
      <trkpt lat="42.70384" lon="0.64593">
        <ele>2053</ele>
        <time>2016-09-24T06:55:03.580Z</time>
      </trkpt>
      <trkpt lat="42.70382" lon="0.6458">
        <ele>2054.6603548729</ele>
        <time>2016-09-24T06:55:11.583Z</time>
      </trkpt>
      <trkpt lat="42.70382" lon="0.64567">
        <ele>2056</ele>
        <time>2016-09-24T06:55:19.583Z</time>
      </trkpt>
      <trkpt lat="42.70384" lon="0.64551">
        <ele>2058</ele>
        <time>2016-09-24T06:55:35.586Z</time>
      </trkpt>
      <trkpt lat="42.70383" lon="0.64538">
        <ele>2063</ele>
        <time>2016-09-24T06:55:49.583Z</time>
      </trkpt>
      <trkpt lat="42.70374" lon="0.64531">
        <ele>2063</ele>
        <time>2016-09-24T06:55:55.283Z</time>
      </trkpt>
      <trkpt lat="42.70384" lon="0.64534">
        <ele>2063</ele>
        <time>2016-09-24T06:56:01.583Z</time>
      </trkpt>
      <trkpt lat="42.7037" lon="0.64538">
        <ele>2068</ele>
        <time>2016-09-24T06:56:23.583Z</time>
      </trkpt>
      <trkpt lat="42.70361" lon="0.6454">
        <ele>2074</ele>
        <time>2016-09-24T06:57:28.658Z</time>
      </trkpt>
      <trkpt lat="42.70365" lon="0.64527">
        <ele>2077</ele>
        <time>2016-09-24T06:57:49.586Z</time>
      </trkpt>
      <trkpt lat="42.70363" lon="0.64513">
        <ele>2079</ele>
        <time>2016-09-24T06:57:56.583Z</time>
      </trkpt>
      <trkpt lat="42.70357" lon="0.64504">
        <ele>2083</ele>
        <time>2016-09-24T06:58:33.581Z</time>
      </trkpt>
      <trkpt lat="42.70348" lon="0.64499">
        <ele>2087</ele>
        <time>2016-09-24T06:58:55.586Z</time>
      </trkpt>
      <trkpt lat="42.70339" lon="0.64496">
        <ele>2094.8592918149</ele>
        <time>2016-09-24T06:59:15.581Z</time>
      </trkpt>
      <trkpt lat="42.70333" lon="0.64506">
        <ele>2098</ele>
        <time>2016-09-24T06:59:26.577Z</time>
      </trkpt>
      <trkpt lat="42.70329" lon="0.64517">
        <ele>2102</ele>
        <time>2016-09-24T07:00:34.582Z</time>
      </trkpt>
      <trkpt lat="42.70323" lon="0.64528">
        <ele>2104</ele>
        <time>2016-09-24T07:00:41.581Z</time>
      </trkpt>
      <trkpt lat="42.70315" lon="0.64537">
        <ele>2106</ele>
        <time>2016-09-24T07:00:52.586Z</time>
      </trkpt>
      <trkpt lat="42.70315" lon="0.64521">
        <ele>2109</ele>
        <time>2016-09-24T07:01:12.683Z</time>
      </trkpt>
      <trkpt lat="42.70317" lon="0.64508">
        <ele>2109</ele>
        <time>2016-09-24T07:01:31.683Z</time>
      </trkpt>
      <trkpt lat="42.70313" lon="0.6452">
        <ele>2113</ele>
        <time>2016-09-24T07:01:48.586Z</time>
      </trkpt>
      <trkpt lat="42.70304" lon="0.64526">
        <ele>2113</ele>
        <time>2016-09-24T07:02:08.586Z</time>
      </trkpt>
      <trkpt lat="42.70297" lon="0.64536">
        <ele>2116</ele>
        <time>2016-09-24T07:02:15.582Z</time>
      </trkpt>
      <trkpt lat="42.70298" lon="0.64518">
        <ele>2118</ele>
        <time>2016-09-24T07:02:28.682Z</time>
      </trkpt>
      <trkpt lat="42.70299" lon="0.64504">
        <ele>2121</ele>
        <time>2016-09-24T07:02:41.610Z</time>
      </trkpt>
      <trkpt lat="42.70296" lon="0.64518">
        <ele>2124</ele>
        <time>2016-09-24T07:02:57.583Z</time>
      </trkpt>
      <trkpt lat="42.70293" lon="0.64501">
        <ele>2128</ele>
        <time>2016-09-24T07:03:24.585Z</time>
      </trkpt>
      <trkpt lat="42.70284" lon="0.64508">
        <ele>2130</ele>
        <time>2016-09-24T07:03:38.581Z</time>
      </trkpt>
      <trkpt lat="42.70281" lon="0.6452">
        <ele>2131</ele>
        <time>2016-09-24T07:03:47.581Z</time>
      </trkpt>
      <trkpt lat="42.70279" lon="0.64535">
        <ele>2133</ele>
        <time>2016-09-24T07:03:57.582Z</time>
      </trkpt>
      <trkpt lat="42.70272" lon="0.64545">
        <ele>2136</ele>
        <time>2016-09-24T07:04:09.581Z</time>
      </trkpt>
      <trkpt lat="42.70268" lon="0.64556">
        <ele>2138</ele>
        <time>2016-09-24T07:04:19.581Z</time>
      </trkpt>
      <trkpt lat="42.70261" lon="0.64548">
        <ele>2144</ele>
        <time>2016-09-24T07:04:39.582Z</time>
      </trkpt>
      <trkpt lat="42.70251" lon="0.64546">
        <ele>2146</ele>
        <time>2016-09-24T07:04:48.583Z</time>
      </trkpt>
      <trkpt lat="42.70256" lon="0.64559">
        <ele>2147</ele>
        <time>2016-09-24T07:06:03.583Z</time>
      </trkpt>
      <trkpt lat="42.70258" lon="0.64546">
        <ele>2147</ele>
        <time>2016-09-24T07:06:19.583Z</time>
      </trkpt>
      <trkpt lat="42.70263" lon="0.64557">
        <ele>2147</ele>
        <time>2016-09-24T07:06:27.583Z</time>
      </trkpt>
      <trkpt lat="42.70263" lon="0.64545">
        <ele>2146</ele>
        <time>2016-09-24T07:06:34.583Z</time>
      </trkpt>
      <trkpt lat="42.70254" lon="0.64551">
        <ele>2147</ele>
        <time>2016-09-24T07:07:03.583Z</time>
      </trkpt>
      <trkpt lat="42.70239" lon="0.64539">
        <ele>2147.0051862069</ele>
        <time>2016-09-24T07:08:09.613Z</time>
      </trkpt>
      <trkpt lat="42.70232" lon="0.6453">
        <ele>2149</ele>
        <time>2016-09-24T07:08:26.583Z</time>
      </trkpt>
      <trkpt lat="42.7023" lon="0.64516">
        <ele>2152</ele>
        <time>2016-09-24T07:08:44.558Z</time>
      </trkpt>
      <trkpt lat="42.70221" lon="0.64511">
        <ele>2154</ele>
        <time>2016-09-24T07:08:55.583Z</time>
      </trkpt>
      <trkpt lat="42.70217" lon="0.645">
        <ele>2157</ele>
        <time>2016-09-24T07:09:12.588Z</time>
      </trkpt>
      <trkpt lat="42.70206" lon="0.64495">
        <ele>2158</ele>
        <time>2016-09-24T07:09:26.609Z</time>
      </trkpt>
      <trkpt lat="42.70197" lon="0.6449">
        <ele>2160.9500032</ele>
        <time>2016-09-24T07:09:40.585Z</time>
      </trkpt>
      <trkpt lat="42.70193" lon="0.64479">
        <ele>2163</ele>
        <time>2016-09-24T07:09:54.583Z</time>
      </trkpt>
      <trkpt lat="42.70184" lon="0.64472">
        <ele>2164</ele>
        <time>2016-09-24T07:10:05.610Z</time>
      </trkpt>
      <trkpt lat="42.70177" lon="0.64463">
        <ele>2167</ele>
        <time>2016-09-24T07:10:18.681Z</time>
      </trkpt>
      <trkpt lat="42.70173" lon="0.64452">
        <ele>2167</ele>
        <time>2016-09-24T07:10:25.583Z</time>
      </trkpt>
      <trkpt lat="42.70169" lon="0.64439">
        <ele>2169</ele>
        <time>2016-09-24T07:10:34.583Z</time>
      </trkpt>
      <trkpt lat="42.70159" lon="0.64441">
        <ele>2171</ele>
        <time>2016-09-24T07:10:42.583Z</time>
      </trkpt>
      <trkpt lat="42.70147" lon="0.6444">
        <ele>2174</ele>
        <time>2016-09-24T07:11:04.613Z</time>
      </trkpt>
      <trkpt lat="42.7014" lon="0.6443">
        <ele>2176</ele>
        <time>2016-09-24T07:11:16.578Z</time>
      </trkpt>
      <trkpt lat="42.7013" lon="0.64436">
        <ele>2177</ele>
        <time>2016-09-24T07:11:25.584Z</time>
      </trkpt>
      <trkpt lat="42.70122" lon="0.6444">
        <ele>2178</ele>
        <time>2016-09-24T07:11:35.580Z</time>
      </trkpt>
      <trkpt lat="42.70113" lon="0.64438">
        <ele>2180</ele>
        <time>2016-09-24T07:11:51.583Z</time>
      </trkpt>
      <trkpt lat="42.70104" lon="0.64437">
        <ele>2181</ele>
        <time>2016-09-24T07:11:58.610Z</time>
      </trkpt>
      <trkpt lat="42.70094" lon="0.64442">
        <ele>2183</ele>
        <time>2016-09-24T07:12:07.581Z</time>
      </trkpt>
      <trkpt lat="42.70086" lon="0.64452">
        <ele>2185</ele>
        <time>2016-09-24T07:12:17.556Z</time>
      </trkpt>
      <trkpt lat="42.70078" lon="0.64455">
        <ele>2187</ele>
        <time>2016-09-24T07:12:27.584Z</time>
      </trkpt>
      <trkpt lat="42.70067" lon="0.64455">
        <ele>2190</ele>
        <time>2016-09-24T07:12:40.585Z</time>
      </trkpt>
      <trkpt lat="42.70058" lon="0.64465">
        <ele>2194</ele>
        <time>2016-09-24T07:12:55.584Z</time>
      </trkpt>
      <trkpt lat="42.70053" lon="0.64453">
        <ele>2195</ele>
        <time>2016-09-24T07:13:04.578Z</time>
      </trkpt>
      <trkpt lat="42.70059" lon="0.64442">
        <ele>2198</ele>
        <time>2016-09-24T07:13:22.583Z</time>
      </trkpt>
      <trkpt lat="42.70067" lon="0.64435">
        <ele>2200</ele>
        <time>2016-09-24T07:13:32.583Z</time>
      </trkpt>
      <trkpt lat="42.70058" lon="0.64431">
        <ele>2202</ele>
        <time>2016-09-24T07:13:42.583Z</time>
      </trkpt>
      <trkpt lat="42.70051" lon="0.64419">
        <ele>2203</ele>
        <time>2016-09-24T07:13:56.658Z</time>
      </trkpt>
      <trkpt lat="42.70061" lon="0.64413">
        <ele>2209</ele>
        <time>2016-09-24T07:14:12.583Z</time>
      </trkpt>
      <trkpt lat="42.70068" lon="0.64403">
        <ele>2211</ele>
        <time>2016-09-24T07:14:28.583Z</time>
      </trkpt>
      <trkpt lat="42.70077" lon="0.64399">
        <ele>2213</ele>
        <time>2016-09-24T07:14:36.583Z</time>
      </trkpt>
      <trkpt lat="42.70068" lon="0.64401">
        <ele>2215</ele>
        <time>2016-09-24T07:14:54.584Z</time>
      </trkpt>
      <trkpt lat="42.70061" lon="0.64392">
        <ele>2219</ele>
        <time>2016-09-24T07:15:02.614Z</time>
      </trkpt>
      <trkpt lat="42.70054" lon="0.64382">
        <ele>2220</ele>
        <time>2016-09-24T07:15:18.583Z</time>
      </trkpt>
      <trkpt lat="42.70048" lon="0.64369">
        <ele>2221</ele>
        <time>2016-09-24T07:15:29.589Z</time>
      </trkpt>
      <trkpt lat="42.70041" lon="0.64359">
        <ele>2223</ele>
        <time>2016-09-24T07:15:35.609Z</time>
      </trkpt>
      <trkpt lat="42.70043" lon="0.64346">
        <ele>2226</ele>
        <time>2016-09-24T07:15:44.609Z</time>
      </trkpt>
      <trkpt lat="42.7003" lon="0.64348">
        <ele>2227</ele>
        <time>2016-09-24T07:15:48.554Z</time>
      </trkpt>
      <trkpt lat="42.70036" lon="0.64339">
        <ele>2227.9355815385</ele>
        <time>2016-09-24T07:15:53.583Z</time>
      </trkpt>
      <trkpt lat="42.70039" lon="0.64326">
        <ele>2233</ele>
        <time>2016-09-24T07:16:12.583Z</time>
      </trkpt>
      <trkpt lat="42.70031" lon="0.64319">
        <ele>2233</ele>
        <time>2016-09-24T07:16:18.579Z</time>
      </trkpt>
      <trkpt lat="42.70025" lon="0.64306">
        <ele>2237</ele>
        <time>2016-09-24T07:16:39.584Z</time>
      </trkpt>
      <trkpt lat="42.7002" lon="0.64295">
        <ele>2239</ele>
        <time>2016-09-24T07:16:47.584Z</time>
      </trkpt>
      <trkpt lat="42.7001" lon="0.64291">
        <ele>2240.9463981737</ele>
        <time>2016-09-24T07:16:57.584Z</time>
      </trkpt>
      <trkpt lat="42.70005" lon="0.6428">
        <ele>2245</ele>
        <time>2016-09-24T07:17:17.584Z</time>
      </trkpt>
      <trkpt lat="42.69997" lon="0.64274">
        <ele>2246</ele>
        <time>2016-09-24T07:17:29.584Z</time>
      </trkpt>
      <trkpt lat="42.69987" lon="0.64271">
        <ele>2248</ele>
        <time>2016-09-24T07:17:38.586Z</time>
      </trkpt>
      <trkpt lat="42.6998" lon="0.64261">
        <ele>2255</ele>
        <time>2016-09-24T07:18:09.584Z</time>
      </trkpt>
      <trkpt lat="42.69978" lon="0.64248">
        <ele>2256</ele>
        <time>2016-09-24T07:18:21.583Z</time>
      </trkpt>
      <trkpt lat="42.69975" lon="0.64235">
        <ele>2256</ele>
        <time>2016-09-24T07:18:30.583Z</time>
      </trkpt>
      <trkpt lat="42.69974" lon="0.64223">
        <ele>2255</ele>
        <time>2016-09-24T07:18:56.583Z</time>
      </trkpt>
      <trkpt lat="42.69984" lon="0.64226">
        <ele>2255</ele>
        <time>2016-09-24T07:20:10.615Z</time>
      </trkpt>
      <trkpt lat="42.69994" lon="0.6422">
        <ele>2252.0269952</ele>
        <time>2016-09-24T07:20:25.583Z</time>
      </trkpt>
      <trkpt lat="42.70005" lon="0.64218">
        <ele>2252</ele>
        <time>2016-09-24T07:20:32.610Z</time>
      </trkpt>
      <trkpt lat="42.70011" lon="0.64208">
        <ele>2252</ele>
        <time>2016-09-24T07:20:39.583Z</time>
      </trkpt>
      <trkpt lat="42.70018" lon="0.64199">
        <ele>2254</ele>
        <time>2016-09-24T07:20:52.583Z</time>
      </trkpt>
      <trkpt lat="42.70023" lon="0.64188">
        <ele>2254</ele>
        <time>2016-09-24T07:21:00.578Z</time>
      </trkpt>
      <trkpt lat="42.70031" lon="0.64181">
        <ele>2253</ele>
        <time>2016-09-24T07:21:16.578Z</time>
      </trkpt>
      <trkpt lat="42.70041" lon="0.64174">
        <ele>2252</ele>
        <time>2016-09-24T07:21:33.654Z</time>
      </trkpt>
      <trkpt lat="42.7005" lon="0.64169">
        <ele>2251</ele>
        <time>2016-09-24T07:21:50.615Z</time>
      </trkpt>
      <trkpt lat="42.70061" lon="0.64169">
        <ele>2250</ele>
        <time>2016-09-24T07:21:57.584Z</time>
      </trkpt>
      <trkpt lat="42.70069" lon="0.64162">
        <ele>2250</ele>
        <time>2016-09-24T07:22:18.684Z</time>
      </trkpt>
      <trkpt lat="42.70074" lon="0.64151">
        <ele>2249</ele>
        <time>2016-09-24T07:22:32.609Z</time>
      </trkpt>
      <trkpt lat="42.70073" lon="0.64137">
        <ele>2249</ele>
        <time>2016-09-24T07:22:42.658Z</time>
      </trkpt>
      <trkpt lat="42.70077" lon="0.64121">
        <ele>2250</ele>
        <time>2016-09-24T07:22:57.584Z</time>
      </trkpt>
      <trkpt lat="42.70074" lon="0.64108">
        <ele>2252</ele>
        <time>2016-09-24T07:23:14.585Z</time>
      </trkpt>
      <trkpt lat="42.70078" lon="0.64109">
        <ele>2252.0000972443</ele>
        <time>2016-09-24T07:23:20.583Z</time>
      </trkpt>
      <trkpt lat="42.70061" lon="0.64119">
        <ele>2253</ele>
        <time>2016-09-24T09:39:21.583Z</time>
      </trkpt>
      <trkpt lat="42.70052" lon="0.64119">
        <ele>2254</ele>
        <time>2016-09-24T09:39:37.587Z</time>
      </trkpt>
      <trkpt lat="42.70046" lon="0.64132">
        <ele>2255</ele>
        <time>2016-09-24T09:39:43.582Z</time>
      </trkpt>
      <trkpt lat="42.70039" lon="0.6414">
        <ele>2255.7510689289</ele>
        <time>2016-09-24T09:39:51.686Z</time>
      </trkpt>
      <trkpt lat="42.7003" lon="0.64141">
        <ele>2255</ele>
        <time>2016-09-24T09:40:02.584Z</time>
      </trkpt>
      <trkpt lat="42.70021" lon="0.64144">
        <ele>2254</ele>
        <time>2016-09-24T09:40:19.582Z</time>
      </trkpt>
      <trkpt lat="42.70015" lon="0.64155">
        <ele>2253</ele>
        <time>2016-09-24T09:40:30.582Z</time>
      </trkpt>
      <trkpt lat="42.7001" lon="0.64168">
        <ele>2252</ele>
        <time>2016-09-24T09:40:36.582Z</time>
      </trkpt>
      <trkpt lat="42.70004" lon="0.64176">
        <ele>2251</ele>
        <time>2016-09-24T09:40:44.551Z</time>
      </trkpt>
      <trkpt lat="42.70003" lon="0.64189">
        <ele>2251</ele>
        <time>2016-09-24T09:40:54.584Z</time>
      </trkpt>
      <trkpt lat="42.70002" lon="0.64203">
        <ele>2250</ele>
        <time>2016-09-24T09:41:09.584Z</time>
      </trkpt>
      <trkpt lat="42.69992" lon="0.64211">
        <ele>2251</ele>
        <time>2016-09-24T09:41:19.609Z</time>
      </trkpt>
      <trkpt lat="42.69983" lon="0.64217">
        <ele>2251</ele>
        <time>2016-09-24T09:41:27.583Z</time>
      </trkpt>
      <trkpt lat="42.69972" lon="0.64218">
        <ele>2253</ele>
        <time>2016-09-24T09:41:39.583Z</time>
      </trkpt>
      <trkpt lat="42.69964" lon="0.64224">
        <ele>2253</ele>
        <time>2016-09-24T09:41:49.582Z</time>
      </trkpt>
      <trkpt lat="42.6997" lon="0.64239">
        <ele>2253</ele>
        <time>2016-09-24T09:42:01.583Z</time>
      </trkpt>
      <trkpt lat="42.69974" lon="0.6425">
        <ele>2253</ele>
        <time>2016-09-24T09:42:09.583Z</time>
      </trkpt>
      <trkpt lat="42.69968" lon="0.64261">
        <ele>2253</ele>
        <time>2016-09-24T09:42:20.586Z</time>
      </trkpt>
      <trkpt lat="42.69964" lon="0.64274">
        <ele>2253</ele>
        <time>2016-09-24T09:42:27.609Z</time>
      </trkpt>
      <trkpt lat="42.69954" lon="0.64274">
        <ele>2253</ele>
        <time>2016-09-24T09:42:36.578Z</time>
      </trkpt>
      <trkpt lat="42.69947" lon="0.64264">
        <ele>2255</ele>
        <time>2016-09-24T09:42:45.583Z</time>
      </trkpt>
      <trkpt lat="42.69937" lon="0.64272">
        <ele>2256</ele>
        <time>2016-09-24T09:42:53.578Z</time>
      </trkpt>
      <trkpt lat="42.69928" lon="0.64267">
        <ele>2258.7842902043</ele>
        <time>2016-09-24T09:43:07.584Z</time>
      </trkpt>
      <trkpt lat="42.69921" lon="0.64276">
        <ele>2260</ele>
        <time>2016-09-24T09:43:13.581Z</time>
      </trkpt>
      <trkpt lat="42.69908" lon="0.64277">
        <ele>2261</ele>
        <time>2016-09-24T09:43:24.583Z</time>
      </trkpt>
      <trkpt lat="42.69899" lon="0.64274">
        <ele>2263</ele>
        <time>2016-09-24T09:43:31.581Z</time>
      </trkpt>
      <trkpt lat="42.69889" lon="0.64274">
        <ele>2265</ele>
        <time>2016-09-24T09:43:44.586Z</time>
      </trkpt>
      <trkpt lat="42.69886" lon="0.64263">
        <ele>2274</ele>
        <time>2016-09-24T09:44:22.584Z</time>
      </trkpt>
      <trkpt lat="42.69875" lon="0.64263">
        <ele>2277</ele>
        <time>2016-09-24T09:44:34.559Z</time>
      </trkpt>
      <trkpt lat="42.69867" lon="0.64258">
        <ele>2278</ele>
        <time>2016-09-24T09:44:42.583Z</time>
      </trkpt>
      <trkpt lat="42.69858" lon="0.64252">
        <ele>2279.8715927273</ele>
        <time>2016-09-24T09:44:52.557Z</time>
      </trkpt>
      <trkpt lat="42.6986" lon="0.64264">
        <ele>2282</ele>
        <time>2016-09-24T09:45:05.583Z</time>
      </trkpt>
      <trkpt lat="42.69867" lon="0.64273">
        <ele>2282</ele>
        <time>2016-09-24T09:45:29.583Z</time>
      </trkpt>
      <trkpt lat="42.69859" lon="0.64263">
        <ele>2282</ele>
        <time>2016-09-24T09:45:44.613Z</time>
      </trkpt>
      <trkpt lat="42.6985" lon="0.6426">
        <ele>2282</ele>
        <time>2016-09-24T09:46:39.553Z</time>
      </trkpt>
      <trkpt lat="42.6984" lon="0.64257">
        <ele>2284.8357180952</ele>
        <time>2016-09-24T09:46:49.582Z</time>
      </trkpt>
      <trkpt lat="42.6983" lon="0.64254">
        <ele>2286</ele>
        <time>2016-09-24T09:46:57.609Z</time>
      </trkpt>
      <trkpt lat="42.69822" lon="0.64248">
        <ele>2289</ele>
        <time>2016-09-24T09:47:06.608Z</time>
      </trkpt>
      <trkpt lat="42.69809" lon="0.64244">
        <ele>2291</ele>
        <time>2016-09-24T09:47:17.583Z</time>
      </trkpt>
      <trkpt lat="42.698" lon="0.64237">
        <ele>2294.653013386</ele>
        <time>2016-09-24T09:47:27.606Z</time>
      </trkpt>
      <trkpt lat="42.6979" lon="0.64231">
        <ele>2296</ele>
        <time>2016-09-24T09:47:38.583Z</time>
      </trkpt>
      <trkpt lat="42.69781" lon="0.64228">
        <ele>2296</ele>
        <time>2016-09-24T09:47:48.586Z</time>
      </trkpt>
      <trkpt lat="42.6977" lon="0.64223">
        <ele>2296</ele>
        <time>2016-09-24T09:47:59.608Z</time>
      </trkpt>
      <trkpt lat="42.6976" lon="0.64225">
        <ele>2297</ele>
        <time>2016-09-24T09:48:06.584Z</time>
      </trkpt>
      <trkpt lat="42.69751" lon="0.6423">
        <ele>2297</ele>
        <time>2016-09-24T09:48:13.583Z</time>
      </trkpt>
      <trkpt lat="42.69741" lon="0.64236">
        <ele>2300</ele>
        <time>2016-09-24T09:48:24.582Z</time>
      </trkpt>
      <trkpt lat="42.69732" lon="0.64236">
        <ele>2301</ele>
        <time>2016-09-24T09:48:32.581Z</time>
      </trkpt>
      <trkpt lat="42.69723" lon="0.64237">
        <ele>2300.4223426564</ele>
        <time>2016-09-24T09:48:39.583Z</time>
      </trkpt>
      <trkpt lat="42.69712" lon="0.64241">
        <ele>2299</ele>
        <time>2016-09-24T09:48:53.582Z</time>
      </trkpt>
      <trkpt lat="42.69702" lon="0.64246">
        <ele>2300</ele>
        <time>2016-09-24T09:49:01.609Z</time>
      </trkpt>
      <trkpt lat="42.69694" lon="0.64254">
        <ele>2302</ele>
        <time>2016-09-24T09:49:09.612Z</time>
      </trkpt>
      <trkpt lat="42.69681" lon="0.64255">
        <ele>2303</ele>
        <time>2016-09-24T09:49:21.583Z</time>
      </trkpt>
      <trkpt lat="42.69675" lon="0.64265">
        <ele>2305</ele>
        <time>2016-09-24T09:49:29.582Z</time>
      </trkpt>
      <trkpt lat="42.69665" lon="0.64262">
        <ele>2305</ele>
        <time>2016-09-24T09:49:35.586Z</time>
      </trkpt>
      <trkpt lat="42.69656" lon="0.64257">
        <ele>2305</ele>
        <time>2016-09-24T09:49:43.612Z</time>
      </trkpt>
      <trkpt lat="42.69649" lon="0.6425">
        <ele>2307</ele>
        <time>2016-09-24T09:49:50.581Z</time>
      </trkpt>
      <trkpt lat="42.69644" lon="0.6424">
        <ele>2308</ele>
        <time>2016-09-24T09:49:57.582Z</time>
      </trkpt>
      <trkpt lat="42.69634" lon="0.64233">
        <ele>2308.5935671445</ele>
        <time>2016-09-24T09:50:06.611Z</time>
      </trkpt>
      <trkpt lat="42.69643" lon="0.64239">
        <ele>2309</ele>
        <time>2016-09-24T09:50:27.695Z</time>
      </trkpt>
      <trkpt lat="42.69631" lon="0.64228">
        <ele>2309</ele>
        <time>2016-09-24T09:50:42.586Z</time>
      </trkpt>
      <trkpt lat="42.6962" lon="0.64223">
        <ele>2310</ele>
        <time>2016-09-24T09:50:51.585Z</time>
      </trkpt>
      <trkpt lat="42.69614" lon="0.64211">
        <ele>2310</ele>
        <time>2016-09-24T09:50:58.585Z</time>
      </trkpt>
      <trkpt lat="42.69606" lon="0.64204">
        <ele>2313</ele>
        <time>2016-09-24T09:51:06.584Z</time>
      </trkpt>
      <trkpt lat="42.69599" lon="0.64194">
        <ele>2314</ele>
        <time>2016-09-24T09:51:14.582Z</time>
      </trkpt>
      <trkpt lat="42.69585" lon="0.64187">
        <ele>2314</ele>
        <time>2016-09-24T09:51:26.583Z</time>
      </trkpt>
      <trkpt lat="42.69579" lon="0.64177">
        <ele>2315</ele>
        <time>2016-09-24T09:51:34.613Z</time>
      </trkpt>
      <trkpt lat="42.6957" lon="0.64178">
        <ele>2315</ele>
        <time>2016-09-24T09:51:48.581Z</time>
      </trkpt>
      <trkpt lat="42.69559" lon="0.64174">
        <ele>2315</ele>
        <time>2016-09-24T09:51:58.583Z</time>
      </trkpt>
      <trkpt lat="42.6955" lon="0.64176">
        <ele>2316</ele>
        <time>2016-09-24T09:52:07.613Z</time>
      </trkpt>
      <trkpt lat="42.69541" lon="0.64179">
        <ele>2317</ele>
        <time>2016-09-24T09:52:16.611Z</time>
      </trkpt>
      <trkpt lat="42.69531" lon="0.64184">
        <ele>2317</ele>
        <time>2016-09-24T09:52:25.583Z</time>
      </trkpt>
      <trkpt lat="42.69521" lon="0.64183">
        <ele>2317</ele>
        <time>2016-09-24T09:52:34.583Z</time>
      </trkpt>
      <trkpt lat="42.69513" lon="0.64192">
        <ele>2318</ele>
        <time>2016-09-24T09:52:45.583Z</time>
      </trkpt>
      <trkpt lat="42.69504" lon="0.6419">
        <ele>2320</ele>
        <time>2016-09-24T09:52:50.583Z</time>
      </trkpt>
      <trkpt lat="42.69496" lon="0.64183">
        <ele>2320</ele>
        <time>2016-09-24T09:52:58.611Z</time>
      </trkpt>
      <trkpt lat="42.69488" lon="0.64175">
        <ele>2322.5725186093</ele>
        <time>2016-09-24T09:53:06.584Z</time>
      </trkpt>
      <trkpt lat="42.69467" lon="0.64172">
        <ele>2324.5332002536</ele>
        <time>2016-09-24T09:53:22.583Z</time>
      </trkpt>
      <trkpt lat="42.69456" lon="0.64171">
        <ele>2326</ele>
        <time>2016-09-24T09:53:32.581Z</time>
      </trkpt>
      <trkpt lat="42.69447" lon="0.64177">
        <ele>2326</ele>
        <time>2016-09-24T09:53:35.583Z</time>
      </trkpt>
      <trkpt lat="42.69441" lon="0.64167">
        <ele>2326</ele>
        <time>2016-09-24T09:53:43.586Z</time>
      </trkpt>
      <trkpt lat="42.69435" lon="0.64158">
        <ele>2332</ele>
        <time>2016-09-24T09:53:52.582Z</time>
      </trkpt>
      <trkpt lat="42.69435" lon="0.64144">
        <ele>2335</ele>
        <time>2016-09-24T09:54:20.610Z</time>
      </trkpt>
      <trkpt lat="42.69425" lon="0.64136">
        <ele>2336</ele>
        <time>2016-09-24T09:54:29.583Z</time>
      </trkpt>
      <trkpt lat="42.69417" lon="0.64125">
        <ele>2338</ele>
        <time>2016-09-24T09:54:39.687Z</time>
      </trkpt>
      <trkpt lat="42.69409" lon="0.64119">
        <ele>2339</ele>
        <time>2016-09-24T09:54:48.583Z</time>
      </trkpt>
      <trkpt lat="42.69405" lon="0.64104">
        <ele>2344</ele>
        <time>2016-09-24T09:54:57.362Z</time>
      </trkpt>
      <trkpt lat="42.69403" lon="0.64087">
        <ele>2344</ele>
        <time>2016-09-24T09:55:08.582Z</time>
      </trkpt>
      <trkpt lat="42.69401" lon="0.64074">
        <ele>2348</ele>
        <time>2016-09-24T09:55:24.583Z</time>
      </trkpt>
      <trkpt lat="42.6939" lon="0.64073">
        <ele>2348.876824376</ele>
        <time>2016-09-24T09:55:32.579Z</time>
      </trkpt>
      <trkpt lat="42.69389" lon="0.6406">
        <ele>2352</ele>
        <time>2016-09-24T09:56:07.583Z</time>
      </trkpt>
      <trkpt lat="42.69387" lon="0.64072">
        <ele>2358</ele>
        <time>2016-09-24T09:56:31.583Z</time>
      </trkpt>
      <trkpt lat="42.69388" lon="0.64084">
        <ele>2360</ele>
        <time>2016-09-24T09:56:43.583Z</time>
      </trkpt>
      <trkpt lat="42.69389" lon="0.64098">
        <ele>2361</ele>
        <time>2016-09-24T09:56:53.583Z</time>
      </trkpt>
      <trkpt lat="42.69378" lon="0.64088">
        <ele>2366</ele>
        <time>2016-09-24T09:57:14.581Z</time>
      </trkpt>
      <trkpt lat="42.69372" lon="0.64077">
        <ele>2366</ele>
        <time>2016-09-24T09:57:23.582Z</time>
      </trkpt>
      <trkpt lat="42.69367" lon="0.64063">
        <ele>2367</ele>
        <time>2016-09-24T09:57:34.584Z</time>
      </trkpt>
      <trkpt lat="42.69358" lon="0.6406">
        <ele>2370</ele>
        <time>2016-09-24T09:57:59.584Z</time>
      </trkpt>
      <trkpt lat="42.69354" lon="0.64044">
        <ele>2371</ele>
        <time>2016-09-24T09:58:11.585Z</time>
      </trkpt>
      <trkpt lat="42.69347" lon="0.64033">
        <ele>2373</ele>
        <time>2016-09-24T09:58:24.582Z</time>
      </trkpt>
      <trkpt lat="42.69339" lon="0.64029">
        <ele>2375</ele>
        <time>2016-09-24T09:58:37.610Z</time>
      </trkpt>
      <trkpt lat="42.69342" lon="0.64041">
        <ele>2378</ele>
        <time>2016-09-24T09:58:49.585Z</time>
      </trkpt>
      <trkpt lat="42.69343" lon="0.64055">
        <ele>2382.4448062587</ele>
        <time>2016-09-24T09:59:12.583Z</time>
      </trkpt>
      <trkpt lat="42.69333" lon="0.64051">
        <ele>2387</ele>
        <time>2016-09-24T09:59:43.582Z</time>
      </trkpt>
      <trkpt lat="42.69313" lon="0.6404">
        <ele>2391</ele>
        <time>2016-09-24T10:00:02.610Z</time>
      </trkpt>
      <trkpt lat="42.69322" lon="0.64043">
        <ele>2394.4035885714</ele>
        <time>2016-09-24T10:00:08.556Z</time>
      </trkpt>
      <trkpt lat="42.69329" lon="0.64053">
        <ele>2396</ele>
        <time>2016-09-24T10:00:15.584Z</time>
      </trkpt>
      <trkpt lat="42.69317" lon="0.64054">
        <ele>2399</ele>
        <time>2016-09-24T10:00:37.583Z</time>
      </trkpt>
      <trkpt lat="42.69305" lon="0.6406">
        <ele>2401.9706573913</ele>
        <time>2016-09-24T10:00:43.583Z</time>
      </trkpt>
      <trkpt lat="42.69316" lon="0.64074">
        <ele>2407</ele>
        <time>2016-09-24T10:01:04.583Z</time>
      </trkpt>
      <trkpt lat="42.6932" lon="0.64088">
        <ele>2407</ele>
        <time>2016-09-24T10:01:10.610Z</time>
      </trkpt>
      <trkpt lat="42.69318" lon="0.641">
        <ele>2416</ele>
        <time>2016-09-24T10:01:43.583Z</time>
      </trkpt>
      <trkpt lat="42.69315" lon="0.64115">
        <ele>2419</ele>
        <time>2016-09-24T10:01:56.583Z</time>
      </trkpt>
      <trkpt lat="42.69313" lon="0.64102">
        <ele>2419.9693236364</ele>
        <time>2016-09-24T10:02:01.583Z</time>
      </trkpt>
      <trkpt lat="42.69312" lon="0.64116">
        <ele>2423</ele>
        <time>2016-09-24T10:02:25.610Z</time>
      </trkpt>
      <trkpt lat="42.69306" lon="0.64106">
        <ele>2427</ele>
        <time>2016-09-24T10:02:35.583Z</time>
      </trkpt>
      <trkpt lat="42.69309" lon="0.64119">
        <ele>2431.9564589054</ele>
        <time>2016-09-24T10:02:51.583Z</time>
      </trkpt>
      <trkpt lat="42.69301" lon="0.64115">
        <ele>2435</ele>
        <time>2016-09-24T10:02:58.583Z</time>
      </trkpt>
      <trkpt lat="42.6929" lon="0.64118">
        <ele>2440</ele>
        <time>2016-09-24T10:03:24.286Z</time>
      </trkpt>
      <trkpt lat="42.69278" lon="0.64114">
        <ele>2445</ele>
        <time>2016-09-24T10:03:39.583Z</time>
      </trkpt>
      <trkpt lat="42.69273" lon="0.6412">
        <ele>2444.999153466</ele>
        <time>2016-09-24T10:03:45.583Z</time>
      </trkpt>
      <trkpt lat="42.69295" lon="0.64107">
        <ele>2435</ele>
        <time>2016-09-24T10:31:55.583Z</time>
      </trkpt>
      <trkpt lat="42.69298" lon="0.64092">
        <ele>2434</ele>
        <time>2016-09-24T10:32:09.583Z</time>
      </trkpt>
      <trkpt lat="42.69307" lon="0.64099">
        <ele>2432</ele>
        <time>2016-09-24T10:32:13.583Z</time>
      </trkpt>
      <trkpt lat="42.69304" lon="0.64087">
        <ele>2426</ele>
        <time>2016-09-24T10:32:41.653Z</time>
      </trkpt>
      <trkpt lat="42.69314" lon="0.64084">
        <ele>2426</ele>
        <time>2016-09-24T10:32:50.583Z</time>
      </trkpt>
      <trkpt lat="42.69305" lon="0.64073">
        <ele>2418</ele>
        <time>2016-09-24T10:33:19.683Z</time>
      </trkpt>
      <trkpt lat="42.69314" lon="0.64071">
        <ele>2416</ele>
        <time>2016-09-24T10:33:48.583Z</time>
      </trkpt>
      <trkpt lat="42.69322" lon="0.64087">
        <ele>2416</ele>
        <time>2016-09-24T10:34:31.583Z</time>
      </trkpt>
      <trkpt lat="42.69313" lon="0.64082">
        <ele>2416</ele>
        <time>2016-09-24T10:34:34.583Z</time>
      </trkpt>
      <trkpt lat="42.69307" lon="0.64072">
        <ele>2416</ele>
        <time>2016-09-24T10:34:40.583Z</time>
      </trkpt>
      <trkpt lat="42.69316" lon="0.64079">
        <ele>2417</ele>
        <time>2016-09-24T10:36:25.583Z</time>
      </trkpt>
      <trkpt lat="42.69319" lon="0.64091">
        <ele>2414</ele>
        <time>2016-09-24T10:36:58.583Z</time>
      </trkpt>
      <trkpt lat="42.69311" lon="0.64083">
        <ele>2408.9270016</ele>
        <time>2016-09-24T10:37:19.683Z</time>
      </trkpt>
      <trkpt lat="42.6931" lon="0.64069">
        <ele>2408</ele>
        <time>2016-09-24T10:37:25.683Z</time>
      </trkpt>
      <trkpt lat="42.69304" lon="0.64057">
        <ele>2408</ele>
        <time>2016-09-24T10:37:33.613Z</time>
      </trkpt>
      <trkpt lat="42.69313" lon="0.64053">
        <ele>2405</ele>
        <time>2016-09-24T10:37:41.583Z</time>
      </trkpt>
      <trkpt lat="42.69322" lon="0.6406">
        <ele>2404.1234216262</ele>
        <time>2016-09-24T10:37:45.583Z</time>
      </trkpt>
      <trkpt lat="42.69331" lon="0.64066">
        <ele>2402</ele>
        <time>2016-09-24T10:37:55.584Z</time>
      </trkpt>
      <trkpt lat="42.69339" lon="0.64073">
        <ele>2398</ele>
        <time>2016-09-24T10:38:03.583Z</time>
      </trkpt>
      <trkpt lat="42.69328" lon="0.64059">
        <ele>2398</ele>
        <time>2016-09-24T10:38:16.554Z</time>
      </trkpt>
      <trkpt lat="42.6932" lon="0.64052">
        <ele>2397</ele>
        <time>2016-09-24T10:38:24.583Z</time>
      </trkpt>
      <trkpt lat="42.69324" lon="0.64041">
        <ele>2393.115925284</ele>
        <time>2016-09-24T10:38:36.609Z</time>
      </trkpt>
      <trkpt lat="42.69334" lon="0.64048">
        <ele>2390</ele>
        <time>2016-09-24T10:38:50.584Z</time>
      </trkpt>
      <trkpt lat="42.69342" lon="0.64058">
        <ele>2387</ele>
        <time>2016-09-24T10:39:01.584Z</time>
      </trkpt>
      <trkpt lat="42.69353" lon="0.64064">
        <ele>2385</ele>
        <time>2016-09-24T10:39:11.581Z</time>
      </trkpt>
      <trkpt lat="42.69348" lon="0.64053">
        <ele>2384</ele>
        <time>2016-09-24T10:39:17.586Z</time>
      </trkpt>
      <trkpt lat="42.69345" lon="0.6404">
        <ele>2383</ele>
        <time>2016-09-24T10:39:24.579Z</time>
      </trkpt>
      <trkpt lat="42.69335" lon="0.64032">
        <ele>2382</ele>
        <time>2016-09-24T10:39:27.584Z</time>
      </trkpt>
      <trkpt lat="42.69353" lon="0.64031">
        <ele>2378</ele>
        <time>2016-09-24T10:39:44.609Z</time>
      </trkpt>
      <trkpt lat="42.6936" lon="0.64041">
        <ele>2374</ele>
        <time>2016-09-24T10:39:56.581Z</time>
      </trkpt>
      <trkpt lat="42.69363" lon="0.64054">
        <ele>2371</ele>
        <time>2016-09-24T10:40:13.618Z</time>
      </trkpt>
      <trkpt lat="42.69373" lon="0.64055">
        <ele>2370</ele>
        <time>2016-09-24T10:40:17.613Z</time>
      </trkpt>
      <trkpt lat="42.69382" lon="0.64061">
        <ele>2369</ele>
        <time>2016-09-24T10:40:25.582Z</time>
      </trkpt>
      <trkpt lat="42.69377" lon="0.64072">
        <ele>2366</ele>
        <time>2016-09-24T10:40:36.583Z</time>
      </trkpt>
      <trkpt lat="42.69386" lon="0.64079">
        <ele>2362</ele>
        <time>2016-09-24T10:40:52.583Z</time>
      </trkpt>
      <trkpt lat="42.69384" lon="0.64066">
        <ele>2358.8610588795</ele>
        <time>2016-09-24T10:41:03.583Z</time>
      </trkpt>
      <trkpt lat="42.69384" lon="0.64053">
        <ele>2358</ele>
        <time>2016-09-24T10:41:10.585Z</time>
      </trkpt>
      <trkpt lat="42.69392" lon="0.64059">
        <ele>2355</ele>
        <time>2016-09-24T10:42:09.584Z</time>
      </trkpt>
      <trkpt lat="42.694" lon="0.64068">
        <ele>2354</ele>
        <time>2016-09-24T10:42:14.582Z</time>
      </trkpt>
      <trkpt lat="42.69406" lon="0.64079">
        <ele>2352</ele>
        <time>2016-09-24T10:42:18.583Z</time>
      </trkpt>
      <trkpt lat="42.69403" lon="0.64091">
        <ele>2349</ele>
        <time>2016-09-24T10:42:29.552Z</time>
      </trkpt>
      <trkpt lat="42.69411" lon="0.64102">
        <ele>2345</ele>
        <time>2016-09-24T10:42:41.582Z</time>
      </trkpt>
      <trkpt lat="42.69419" lon="0.64113">
        <ele>2343</ele>
        <time>2016-09-24T10:42:50.581Z</time>
      </trkpt>
      <trkpt lat="42.69425" lon="0.64123">
        <ele>2340</ele>
        <time>2016-09-24T10:42:59.583Z</time>
      </trkpt>
      <trkpt lat="42.69431" lon="0.64132">
        <ele>2338</ele>
        <time>2016-09-24T10:43:05.581Z</time>
      </trkpt>
      <trkpt lat="42.6944" lon="0.6414">
        <ele>2338</ele>
        <time>2016-09-24T10:43:10.581Z</time>
      </trkpt>
      <trkpt lat="42.69443" lon="0.64152">
        <ele>2337</ele>
        <time>2016-09-24T10:43:17.583Z</time>
      </trkpt>
      <trkpt lat="42.69452" lon="0.64161">
        <ele>2335</ele>
        <time>2016-09-24T10:43:25.583Z</time>
      </trkpt>
      <trkpt lat="42.69461" lon="0.64164">
        <ele>2330</ele>
        <time>2016-09-24T10:43:40.609Z</time>
      </trkpt>
      <trkpt lat="42.69472" lon="0.64164">
        <ele>2329</ele>
        <time>2016-09-24T10:43:45.583Z</time>
      </trkpt>
      <trkpt lat="42.69485" lon="0.64169">
        <ele>2328</ele>
        <time>2016-09-24T10:43:52.609Z</time>
      </trkpt>
      <trkpt lat="42.69493" lon="0.64175">
        <ele>2327.1539112239</ele>
        <time>2016-09-24T10:44:00.583Z</time>
      </trkpt>
      <trkpt lat="42.69501" lon="0.64181">
        <ele>2327</ele>
        <time>2016-09-24T10:44:05.583Z</time>
      </trkpt>
      <trkpt lat="42.69509" lon="0.64189">
        <ele>2324</ele>
        <time>2016-09-24T10:44:15.614Z</time>
      </trkpt>
      <trkpt lat="42.69518" lon="0.64194">
        <ele>2321</ele>
        <time>2016-09-24T10:44:20.613Z</time>
      </trkpt>
      <trkpt lat="42.69527" lon="0.64196">
        <ele>2320</ele>
        <time>2016-09-24T10:44:30.583Z</time>
      </trkpt>
      <trkpt lat="42.69537" lon="0.64188">
        <ele>2319</ele>
        <time>2016-09-24T10:44:37.613Z</time>
      </trkpt>
      <trkpt lat="42.69553" lon="0.6419">
        <ele>2319</ele>
        <time>2016-09-24T10:44:45.583Z</time>
      </trkpt>
      <trkpt lat="42.69555" lon="0.64175">
        <ele>2319</ele>
        <time>2016-09-24T10:44:56.612Z</time>
      </trkpt>
      <trkpt lat="42.69547" lon="0.64168">
        <ele>2319</ele>
        <time>2016-09-24T10:45:16.581Z</time>
      </trkpt>
      <trkpt lat="42.69551" lon="0.64179">
        <ele>2319</ele>
        <time>2016-09-24T10:45:27.607Z</time>
      </trkpt>
      <trkpt lat="42.6956" lon="0.64179">
        <ele>2318</ele>
        <time>2016-09-24T10:45:53.611Z</time>
      </trkpt>
      <trkpt lat="42.69549" lon="0.64187">
        <ele>2318</ele>
        <time>2016-09-24T10:46:40.581Z</time>
      </trkpt>
      <trkpt lat="42.69557" lon="0.64179">
        <ele>2318</ele>
        <time>2016-09-24T10:46:48.583Z</time>
      </trkpt>
      <trkpt lat="42.69566" lon="0.64174">
        <ele>2317</ele>
        <time>2016-09-24T10:47:32.421Z</time>
      </trkpt>
      <trkpt lat="42.69575" lon="0.64177">
        <ele>2316</ele>
        <time>2016-09-24T10:47:47.583Z</time>
      </trkpt>
      <trkpt lat="42.69586" lon="0.6417">
        <ele>2315</ele>
        <time>2016-09-24T10:48:08.613Z</time>
      </trkpt>
      <trkpt lat="42.69578" lon="0.64183">
        <ele>2315</ele>
        <time>2016-09-24T10:48:18.583Z</time>
      </trkpt>
      <trkpt lat="42.69589" lon="0.64177">
        <ele>2314</ele>
        <time>2016-09-24T10:48:26.583Z</time>
      </trkpt>
      <trkpt lat="42.696" lon="0.64168">
        <ele>2310</ele>
        <time>2016-09-24T10:49:24.613Z</time>
      </trkpt>
      <trkpt lat="42.69607" lon="0.64162">
        <ele>2306</ele>
        <time>2016-09-24T10:49:39.583Z</time>
      </trkpt>
      <trkpt lat="42.69614" lon="0.64154">
        <ele>2303</ele>
        <time>2016-09-24T10:49:48.583Z</time>
      </trkpt>
      <trkpt lat="42.69623" lon="0.64148">
        <ele>2303</ele>
        <time>2016-09-24T10:50:03.583Z</time>
      </trkpt>
      <trkpt lat="42.69634" lon="0.64146">
        <ele>2303</ele>
        <time>2016-09-24T10:50:13.683Z</time>
      </trkpt>
      <trkpt lat="42.69644" lon="0.64144">
        <ele>2302</ele>
        <time>2016-09-24T10:50:21.583Z</time>
      </trkpt>
      <trkpt lat="42.69653" lon="0.64146">
        <ele>2302</ele>
        <time>2016-09-24T10:50:31.583Z</time>
      </trkpt>
      <trkpt lat="42.69666" lon="0.64137">
        <ele>2300.094554359</ele>
        <time>2016-09-24T10:50:51.613Z</time>
      </trkpt>
      <trkpt lat="42.69674" lon="0.64133">
        <ele>2296</ele>
        <time>2016-09-24T10:51:07.583Z</time>
      </trkpt>
      <trkpt lat="42.69686" lon="0.64131">
        <ele>2295</ele>
        <time>2016-09-24T10:51:14.583Z</time>
      </trkpt>
      <trkpt lat="42.69695" lon="0.64129">
        <ele>2293</ele>
        <time>2016-09-24T10:51:46.583Z</time>
      </trkpt>
      <trkpt lat="42.69702" lon="0.6412">
        <ele>2287</ele>
        <time>2016-09-24T10:52:45.583Z</time>
      </trkpt>
      <trkpt lat="42.69713" lon="0.64113">
        <ele>2282</ele>
        <time>2016-09-24T10:55:23.583Z</time>
      </trkpt>
      <trkpt lat="42.69723" lon="0.64112">
        <ele>2279.1312457143</ele>
        <time>2016-09-24T10:55:35.583Z</time>
      </trkpt>
      <trkpt lat="42.69732" lon="0.64115">
        <ele>2278</ele>
        <time>2016-09-24T10:55:51.583Z</time>
      </trkpt>
      <trkpt lat="42.69742" lon="0.64116">
        <ele>2278</ele>
        <time>2016-09-24T10:55:59.583Z</time>
      </trkpt>
      <trkpt lat="42.69751" lon="0.64117">
        <ele>2277</ele>
        <time>2016-09-24T10:56:08.583Z</time>
      </trkpt>
      <trkpt lat="42.6976" lon="0.64118">
        <ele>2276</ele>
        <time>2016-09-24T10:56:17.583Z</time>
      </trkpt>
      <trkpt lat="42.6977" lon="0.6412">
        <ele>2272</ele>
        <time>2016-09-24T10:56:27.684Z</time>
      </trkpt>
      <trkpt lat="42.69782" lon="0.64118">
        <ele>2272</ele>
        <time>2016-09-24T10:56:36.493Z</time>
      </trkpt>
      <trkpt lat="42.69793" lon="0.64121">
        <ele>2269</ele>
        <time>2016-09-24T10:56:55.684Z</time>
      </trkpt>
      <trkpt lat="42.69804" lon="0.64118">
        <ele>2267</ele>
        <time>2016-09-24T10:57:05.583Z</time>
      </trkpt>
      <trkpt lat="42.69808" lon="0.64106">
        <ele>2267</ele>
        <time>2016-09-24T10:57:18.553Z</time>
      </trkpt>
      <trkpt lat="42.69811" lon="0.64094">
        <ele>2267</ele>
        <time>2016-09-24T10:57:29.583Z</time>
      </trkpt>
      <trkpt lat="42.69819" lon="0.64087">
        <ele>2264</ele>
        <time>2016-09-24T10:57:47.583Z</time>
      </trkpt>
      <trkpt lat="42.69826" lon="0.6408">
        <ele>2264</ele>
        <time>2016-09-24T10:58:05.583Z</time>
      </trkpt>
      <trkpt lat="42.69817" lon="0.64079">
        <ele>2264</ele>
        <time>2016-09-24T10:59:17.610Z</time>
      </trkpt>
      <trkpt lat="42.69828" lon="0.64079">
        <ele>2263</ele>
        <time>2016-09-24T11:00:11.583Z</time>
      </trkpt>
      <trkpt lat="42.69819" lon="0.64082">
        <ele>2264</ele>
        <time>2016-09-24T11:01:21.583Z</time>
      </trkpt>
      <trkpt lat="42.69807" lon="0.64091">
        <ele>2264</ele>
        <time>2016-09-24T11:01:56.583Z</time>
      </trkpt>
      <trkpt lat="42.69816" lon="0.64095">
        <ele>2263</ele>
        <time>2016-09-24T11:02:08.686Z</time>
      </trkpt>
      <trkpt lat="42.69822" lon="0.64085">
        <ele>2263.9730048</ele>
        <time>2016-09-24T11:02:20.583Z</time>
      </trkpt>
      <trkpt lat="42.69832" lon="0.64084">
        <ele>2264</ele>
        <time>2016-09-24T11:05:54.581Z</time>
      </trkpt>
      <trkpt lat="42.69821" lon="0.64111">
        <ele>2265</ele>
        <time>2016-09-24T11:47:30.585Z</time>
      </trkpt>
      <trkpt lat="42.69816" lon="0.64118">
        <ele>2266</ele>
        <time>2016-09-24T11:47:38.582Z</time>
      </trkpt>
      <trkpt lat="42.69816" lon="0.64131">
        <ele>2266</ele>
        <time>2016-09-24T11:47:49.585Z</time>
      </trkpt>
      <trkpt lat="42.69825" lon="0.64139">
        <ele>2265</ele>
        <time>2016-09-24T11:48:12.583Z</time>
      </trkpt>
      <trkpt lat="42.69837" lon="0.64143">
        <ele>2265</ele>
        <time>2016-09-24T11:48:23.612Z</time>
      </trkpt>
      <trkpt lat="42.69841" lon="0.64155">
        <ele>2266</ele>
        <time>2016-09-24T11:48:40.659Z</time>
      </trkpt>
      <trkpt lat="42.6985" lon="0.64157">
        <ele>2265</ele>
        <time>2016-09-24T11:48:49.680Z</time>
      </trkpt>
      <trkpt lat="42.69858" lon="0.64163">
        <ele>2266</ele>
        <time>2016-09-24T11:48:58.583Z</time>
      </trkpt>
      <trkpt lat="42.69863" lon="0.64174">
        <ele>2266</ele>
        <time>2016-09-24T11:49:08.612Z</time>
      </trkpt>
      <trkpt lat="42.6987" lon="0.64182">
        <ele>2266</ele>
        <time>2016-09-24T11:49:17.584Z</time>
      </trkpt>
      <trkpt lat="42.69873" lon="0.64194">
        <ele>2266</ele>
        <time>2016-09-24T11:49:30.260Z</time>
      </trkpt>
      <trkpt lat="42.69883" lon="0.64188">
        <ele>2266</ele>
        <time>2016-09-24T11:49:34.583Z</time>
      </trkpt>
      <trkpt lat="42.69892" lon="0.64192">
        <ele>2266</ele>
        <time>2016-09-24T11:49:43.582Z</time>
      </trkpt>
      <trkpt lat="42.699" lon="0.64199">
        <ele>2266</ele>
        <time>2016-09-24T11:49:54.583Z</time>
      </trkpt>
      <trkpt lat="42.69907" lon="0.64208">
        <ele>2265</ele>
        <time>2016-09-24T11:50:06.583Z</time>
      </trkpt>
      <trkpt lat="42.6991" lon="0.6422">
        <ele>2265</ele>
        <time>2016-09-24T11:50:17.583Z</time>
      </trkpt>
      <trkpt lat="42.69916" lon="0.6423">
        <ele>2263</ele>
        <time>2016-09-24T11:50:27.583Z</time>
      </trkpt>
      <trkpt lat="42.69918" lon="0.64242">
        <ele>2263</ele>
        <time>2016-09-24T11:50:35.583Z</time>
      </trkpt>
      <trkpt lat="42.69921" lon="0.64255">
        <ele>2264</ele>
        <time>2016-09-24T11:50:44.583Z</time>
      </trkpt>
      <trkpt lat="42.69925" lon="0.64268">
        <ele>2264</ele>
        <time>2016-09-24T11:50:57.584Z</time>
      </trkpt>
      <trkpt lat="42.69934" lon="0.6427">
        <ele>2265.0018152622</ele>
        <time>2016-09-24T11:51:10.612Z</time>
      </trkpt>
      <trkpt lat="42.69943" lon="0.64277">
        <ele>2265</ele>
        <time>2016-09-24T11:51:30.385Z</time>
      </trkpt>
      <trkpt lat="42.69957" lon="0.64275">
        <ele>2261</ele>
        <time>2016-09-24T11:51:46.683Z</time>
      </trkpt>
      <trkpt lat="42.69967" lon="0.64277">
        <ele>2259</ele>
        <time>2016-09-24T11:51:58.683Z</time>
      </trkpt>
      <trkpt lat="42.69975" lon="0.64271">
        <ele>2260</ele>
        <time>2016-09-24T11:52:09.384Z</time>
      </trkpt>
      <trkpt lat="42.69984" lon="0.6427">
        <ele>2256</ele>
        <time>2016-09-24T11:52:20.582Z</time>
      </trkpt>
      <trkpt lat="42.69994" lon="0.64269">
        <ele>2253</ele>
        <time>2016-09-24T11:52:40.615Z</time>
      </trkpt>
      <trkpt lat="42.70006" lon="0.64279">
        <ele>2252</ele>
        <time>2016-09-24T11:52:54.612Z</time>
      </trkpt>
      <trkpt lat="42.70014" lon="0.64285">
        <ele>2250</ele>
        <time>2016-09-24T11:53:04.587Z</time>
      </trkpt>
      <trkpt lat="42.70021" lon="0.64294">
        <ele>2249</ele>
        <time>2016-09-24T11:53:15.608Z</time>
      </trkpt>
      <trkpt lat="42.70027" lon="0.64304">
        <ele>2243</ele>
        <time>2016-09-24T11:53:27.584Z</time>
      </trkpt>
      <trkpt lat="42.70035" lon="0.64313">
        <ele>2243</ele>
        <time>2016-09-24T11:53:41.582Z</time>
      </trkpt>
      <trkpt lat="42.70041" lon="0.64322">
        <ele>2240</ele>
        <time>2016-09-24T11:53:57.585Z</time>
      </trkpt>
      <trkpt lat="42.7005" lon="0.64329">
        <ele>2239</ele>
        <time>2016-09-24T11:54:06.585Z</time>
      </trkpt>
      <trkpt lat="42.70055" lon="0.64343">
        <ele>2237</ele>
        <time>2016-09-24T11:54:12.614Z</time>
      </trkpt>
      <trkpt lat="42.70064" lon="0.64359">
        <ele>2235</ele>
        <time>2016-09-24T11:54:24.583Z</time>
      </trkpt>
      <trkpt lat="42.70072" lon="0.64369">
        <ele>2233</ele>
        <time>2016-09-24T11:54:37.385Z</time>
      </trkpt>
      <trkpt lat="42.70082" lon="0.64372">
        <ele>2233</ele>
        <time>2016-09-24T11:54:44.586Z</time>
      </trkpt>
      <trkpt lat="42.70072" lon="0.64377">
        <ele>2230</ele>
        <time>2016-09-24T11:54:58.584Z</time>
      </trkpt>
      <trkpt lat="42.70077" lon="0.6439">
        <ele>2226</ele>
        <time>2016-09-24T11:55:12.583Z</time>
      </trkpt>
      <trkpt lat="42.70069" lon="0.64396">
        <ele>2224</ele>
        <time>2016-09-24T11:55:23.322Z</time>
      </trkpt>
      <trkpt lat="42.70062" lon="0.64405">
        <ele>2222</ele>
        <time>2016-09-24T11:55:34.586Z</time>
      </trkpt>
      <trkpt lat="42.70058" lon="0.64417">
        <ele>2216.0263143712</ele>
        <time>2016-09-24T11:55:50.585Z</time>
      </trkpt>
      <trkpt lat="42.70054" lon="0.64431">
        <ele>2209</ele>
        <time>2016-09-24T11:56:17.613Z</time>
      </trkpt>
      <trkpt lat="42.70064" lon="0.64427">
        <ele>2207</ele>
        <time>2016-09-24T11:56:34.581Z</time>
      </trkpt>
      <trkpt lat="42.70057" lon="0.64435">
        <ele>2208</ele>
        <time>2016-09-24T11:56:56.587Z</time>
      </trkpt>
      <trkpt lat="42.70051" lon="0.64445">
        <ele>2204</ele>
        <time>2016-09-24T11:57:11.683Z</time>
      </trkpt>
      <trkpt lat="42.70051" lon="0.64458">
        <ele>2200</ele>
        <time>2016-09-24T11:57:47.687Z</time>
      </trkpt>
      <trkpt lat="42.70065" lon="0.64457">
        <ele>2198</ele>
        <time>2016-09-24T11:58:05.284Z</time>
      </trkpt>
      <trkpt lat="42.70075" lon="0.64454">
        <ele>2198</ele>
        <time>2016-09-24T11:58:07.591Z</time>
      </trkpt>
      <trkpt lat="42.70084" lon="0.6445">
        <ele>2196</ele>
        <time>2016-09-24T11:58:13.583Z</time>
      </trkpt>
      <trkpt lat="42.70093" lon="0.64445">
        <ele>2191</ele>
        <time>2016-09-24T11:58:26.583Z</time>
      </trkpt>
      <trkpt lat="42.70111" lon="0.64444">
        <ele>2190</ele>
        <time>2016-09-24T11:58:35.583Z</time>
      </trkpt>
      <trkpt lat="42.7012" lon="0.6444">
        <ele>2187</ele>
        <time>2016-09-24T11:58:54.583Z</time>
      </trkpt>
      <trkpt lat="42.70129" lon="0.64434">
        <ele>2184</ele>
        <time>2016-09-24T11:59:01.583Z</time>
      </trkpt>
      <trkpt lat="42.70138" lon="0.64431">
        <ele>2184</ele>
        <time>2016-09-24T11:59:06.583Z</time>
      </trkpt>
      <trkpt lat="42.70149" lon="0.64429">
        <ele>2182</ele>
        <time>2016-09-24T11:59:17.583Z</time>
      </trkpt>
      <trkpt lat="42.70158" lon="0.64436">
        <ele>2180</ele>
        <time>2016-09-24T11:59:27.581Z</time>
      </trkpt>
      <trkpt lat="42.70167" lon="0.64444">
        <ele>2178</ele>
        <time>2016-09-24T11:59:39.688Z</time>
      </trkpt>
      <trkpt lat="42.70174" lon="0.64453">
        <ele>2176</ele>
        <time>2016-09-24T11:59:48.586Z</time>
      </trkpt>
      <trkpt lat="42.70179" lon="0.64464">
        <ele>2175</ele>
        <time>2016-09-24T11:59:58.610Z</time>
      </trkpt>
      <trkpt lat="42.70185" lon="0.64475">
        <ele>2172</ele>
        <time>2016-09-24T12:00:07.580Z</time>
      </trkpt>
      <trkpt lat="42.70191" lon="0.64484">
        <ele>2170</ele>
        <time>2016-09-24T12:00:18.580Z</time>
      </trkpt>
      <trkpt lat="42.70198" lon="0.64493">
        <ele>2168</ele>
        <time>2016-09-24T12:00:28.583Z</time>
      </trkpt>
      <trkpt lat="42.70207" lon="0.64499">
        <ele>2166</ele>
        <time>2016-09-24T12:00:37.583Z</time>
      </trkpt>
      <trkpt lat="42.70216" lon="0.64505">
        <ele>2163</ele>
        <time>2016-09-24T12:00:48.583Z</time>
      </trkpt>
      <trkpt lat="42.70224" lon="0.64512">
        <ele>2163</ele>
        <time>2016-09-24T12:00:58.583Z</time>
      </trkpt>
      <trkpt lat="42.70231" lon="0.64521">
        <ele>2161</ele>
        <time>2016-09-24T12:01:07.583Z</time>
      </trkpt>
      <trkpt lat="42.70236" lon="0.64533">
        <ele>2159</ele>
        <time>2016-09-24T12:01:17.400Z</time>
      </trkpt>
      <trkpt lat="42.70244" lon="0.64539">
        <ele>2158</ele>
        <time>2016-09-24T12:01:25.610Z</time>
      </trkpt>
      <trkpt lat="42.70246" lon="0.64555">
        <ele>2155</ele>
        <time>2016-09-24T12:01:41.609Z</time>
      </trkpt>
      <trkpt lat="42.70256" lon="0.64551">
        <ele>2154.2457308421</ele>
        <time>2016-09-24T12:01:50.583Z</time>
      </trkpt>
      <trkpt lat="42.70265" lon="0.64553">
        <ele>2154</ele>
        <time>2016-09-24T12:01:58.580Z</time>
      </trkpt>
      <trkpt lat="42.70275" lon="0.64558">
        <ele>2148</ele>
        <time>2016-09-24T12:02:11.683Z</time>
      </trkpt>
      <trkpt lat="42.70274" lon="0.64545">
        <ele>2146</ele>
        <time>2016-09-24T12:02:47.583Z</time>
      </trkpt>
      <trkpt lat="42.7028" lon="0.64535">
        <ele>2144</ele>
        <time>2016-09-24T12:02:56.583Z</time>
      </trkpt>
      <trkpt lat="42.70288" lon="0.64529">
        <ele>2140</ele>
        <time>2016-09-24T12:03:05.583Z</time>
      </trkpt>
      <trkpt lat="42.70292" lon="0.64518">
        <ele>2139</ele>
        <time>2016-09-24T12:03:14.583Z</time>
      </trkpt>
      <trkpt lat="42.70293" lon="0.64505">
        <ele>2139</ele>
        <time>2016-09-24T12:03:27.583Z</time>
      </trkpt>
      <trkpt lat="42.70289" lon="0.64518">
        <ele>2136</ele>
        <time>2016-09-24T12:03:47.554Z</time>
      </trkpt>
      <trkpt lat="42.70284" lon="0.64528">
        <ele>2135</ele>
        <time>2016-09-24T12:03:53.585Z</time>
      </trkpt>
      <trkpt lat="42.70293" lon="0.64524">
        <ele>2134</ele>
        <time>2016-09-24T12:03:58.583Z</time>
      </trkpt>
      <trkpt lat="42.70297" lon="0.64513">
        <ele>2133</ele>
        <time>2016-09-24T12:04:06.583Z</time>
      </trkpt>
      <trkpt lat="42.70302" lon="0.64502">
        <ele>2133</ele>
        <time>2016-09-24T12:04:13.583Z</time>
      </trkpt>
      <trkpt lat="42.70309" lon="0.64514">
        <ele>2128</ele>
        <time>2016-09-24T12:04:28.615Z</time>
      </trkpt>
      <trkpt lat="42.70307" lon="0.64528">
        <ele>2128</ele>
        <time>2016-09-24T12:04:34.580Z</time>
      </trkpt>
      <trkpt lat="42.70301" lon="0.64538">
        <ele>2128</ele>
        <time>2016-09-24T12:04:41.581Z</time>
      </trkpt>
      <trkpt lat="42.70305" lon="0.64527">
        <ele>2125</ele>
        <time>2016-09-24T12:04:53.583Z</time>
      </trkpt>
      <trkpt lat="42.7031" lon="0.64516">
        <ele>2123</ele>
        <time>2016-09-24T12:05:07.583Z</time>
      </trkpt>
      <trkpt lat="42.70312" lon="0.64528">
        <ele>2119</ele>
        <time>2016-09-24T12:05:32.585Z</time>
      </trkpt>
      <trkpt lat="42.70308" lon="0.64543">
        <ele>2119</ele>
        <time>2016-09-24T12:05:43.687Z</time>
      </trkpt>
      <trkpt lat="42.70317" lon="0.64537">
        <ele>2118</ele>
        <time>2016-09-24T12:05:52.583Z</time>
      </trkpt>
      <trkpt lat="42.70321" lon="0.6455">
        <ele>2111</ele>
        <time>2016-09-24T12:06:22.580Z</time>
      </trkpt>
      <trkpt lat="42.70331" lon="0.64552">
        <ele>2109</ele>
        <time>2016-09-24T12:06:49.581Z</time>
      </trkpt>
      <trkpt lat="42.7035" lon="0.64542">
        <ele>2100</ele>
        <time>2016-09-24T12:07:44.583Z</time>
      </trkpt>
      <trkpt lat="42.70344" lon="0.64533">
        <ele>2099</ele>
        <time>2016-09-24T12:07:52.583Z</time>
      </trkpt>
      <trkpt lat="42.70351" lon="0.64524">
        <ele>2096</ele>
        <time>2016-09-24T12:08:05.581Z</time>
      </trkpt>
      <trkpt lat="42.70348" lon="0.64512">
        <ele>2096</ele>
        <time>2016-09-24T12:08:13.583Z</time>
      </trkpt>
      <trkpt lat="42.70357" lon="0.64509">
        <ele>2096</ele>
        <time>2016-09-24T12:08:19.583Z</time>
      </trkpt>
      <trkpt lat="42.7036" lon="0.64522">
        <ele>2092</ele>
        <time>2016-09-24T12:08:32.583Z</time>
      </trkpt>
      <trkpt lat="42.70362" lon="0.64534">
        <ele>2088</ele>
        <time>2016-09-24T12:08:47.555Z</time>
      </trkpt>
      <trkpt lat="42.7037" lon="0.64527">
        <ele>2084</ele>
        <time>2016-09-24T12:09:11.583Z</time>
      </trkpt>
      <trkpt lat="42.70376" lon="0.64536">
        <ele>2081</ele>
        <time>2016-09-24T12:09:40.585Z</time>
      </trkpt>
      <trkpt lat="42.70382" lon="0.64548">
        <ele>2080</ele>
        <time>2016-09-24T12:09:50.611Z</time>
      </trkpt>
      <trkpt lat="42.70376" lon="0.64559">
        <ele>2078</ele>
        <time>2016-09-24T12:09:59.586Z</time>
      </trkpt>
      <trkpt lat="42.70374" lon="0.64574">
        <ele>2074</ele>
        <time>2016-09-24T12:10:16.586Z</time>
      </trkpt>
      <trkpt lat="42.70376" lon="0.64589">
        <ele>2069</ele>
        <time>2016-09-24T12:10:32.583Z</time>
      </trkpt>
      <trkpt lat="42.70381" lon="0.64602">
        <ele>2068</ele>
        <time>2016-09-24T12:11:08.587Z</time>
      </trkpt>
      <trkpt lat="42.70386" lon="0.64616">
        <ele>2064</ele>
        <time>2016-09-24T12:11:18.612Z</time>
      </trkpt>
      <trkpt lat="42.70391" lon="0.64627">
        <ele>2062</ele>
        <time>2016-09-24T12:11:27.580Z</time>
      </trkpt>
      <trkpt lat="42.70392" lon="0.64647">
        <ele>2062</ele>
        <time>2016-09-24T12:11:40.555Z</time>
      </trkpt>
      <trkpt lat="42.70395" lon="0.64661">
        <ele>2062</ele>
        <time>2016-09-24T12:11:50.585Z</time>
      </trkpt>
      <trkpt lat="42.70399" lon="0.64676">
        <ele>2060</ele>
        <time>2016-09-24T12:12:02.581Z</time>
      </trkpt>
      <trkpt lat="42.70394" lon="0.64686">
        <ele>2058</ele>
        <time>2016-09-24T12:12:25.586Z</time>
      </trkpt>
      <trkpt lat="42.70385" lon="0.64697">
        <ele>2057</ele>
        <time>2016-09-24T12:12:33.583Z</time>
      </trkpt>
      <trkpt lat="42.7038" lon="0.64708">
        <ele>2056</ele>
        <time>2016-09-24T12:12:42.583Z</time>
      </trkpt>
      <trkpt lat="42.70378" lon="0.64721">
        <ele>2056</ele>
        <time>2016-09-24T12:12:56.555Z</time>
      </trkpt>
      <trkpt lat="42.70376" lon="0.64734">
        <ele>2053</ele>
        <time>2016-09-24T12:13:07.581Z</time>
      </trkpt>
      <trkpt lat="42.70381" lon="0.64746">
        <ele>2051</ele>
        <time>2016-09-24T12:13:16.581Z</time>
      </trkpt>
      <trkpt lat="42.70383" lon="0.64759">
        <ele>2049</ele>
        <time>2016-09-24T12:13:28.581Z</time>
      </trkpt>
      <trkpt lat="42.7039" lon="0.64769">
        <ele>2048</ele>
        <time>2016-09-24T12:13:34.581Z</time>
      </trkpt>
      <trkpt lat="42.70398" lon="0.64776">
        <ele>2046</ele>
        <time>2016-09-24T12:13:41.581Z</time>
      </trkpt>
      <trkpt lat="42.70406" lon="0.64782">
        <ele>2044.0540032</ele>
        <time>2016-09-24T12:13:51.556Z</time>
      </trkpt>
      <trkpt lat="42.70407" lon="0.64766">
        <ele>2040</ele>
        <time>2016-09-24T12:14:07.583Z</time>
      </trkpt>
      <trkpt lat="42.70415" lon="0.64774">
        <ele>2036</ele>
        <time>2016-09-24T12:14:33.581Z</time>
      </trkpt>
      <trkpt lat="42.70424" lon="0.64768">
        <ele>2028.7225831315</ele>
        <time>2016-09-24T12:15:01.496Z</time>
      </trkpt>
      <trkpt lat="42.7043" lon="0.64756">
        <ele>2025.9921530653</ele>
        <time>2016-09-24T12:15:25.613Z</time>
      </trkpt>
      <trkpt lat="42.70436" lon="0.64765">
        <ele>2020</ele>
        <time>2016-09-24T12:16:00.586Z</time>
      </trkpt>
      <trkpt lat="42.70446" lon="0.64764">
        <ele>2017</ele>
        <time>2016-09-24T12:16:12.686Z</time>
      </trkpt>
      <trkpt lat="42.70447" lon="0.64752">
        <ele>2012</ele>
        <time>2016-09-24T12:16:39.586Z</time>
      </trkpt>
      <trkpt lat="42.70454" lon="0.6476">
        <ele>2007</ele>
        <time>2016-09-24T12:17:05.611Z</time>
      </trkpt>
      <trkpt lat="42.7046" lon="0.64773">
        <ele>2001</ele>
        <time>2016-09-24T12:17:35.684Z</time>
      </trkpt>
      <trkpt lat="42.70466" lon="0.64763">
        <ele>1997</ele>
        <time>2016-09-24T12:18:03.583Z</time>
      </trkpt>
      <trkpt lat="42.7047" lon="0.64752">
        <ele>1997</ele>
        <time>2016-09-24T12:18:11.582Z</time>
      </trkpt>
      <trkpt lat="42.7048" lon="0.64756">
        <ele>1994</ele>
        <time>2016-09-24T12:18:31.582Z</time>
      </trkpt>
      <trkpt lat="42.70483" lon="0.64771">
        <ele>1990</ele>
        <time>2016-09-24T12:18:55.610Z</time>
      </trkpt>
      <trkpt lat="42.70494" lon="0.64765">
        <ele>1986</ele>
        <time>2016-09-24T12:19:12.583Z</time>
      </trkpt>
      <trkpt lat="42.70494" lon="0.64752">
        <ele>1985</ele>
        <time>2016-09-24T12:19:20.688Z</time>
      </trkpt>
      <trkpt lat="42.705" lon="0.64761">
        <ele>1978</ele>
        <time>2016-09-24T12:19:55.581Z</time>
      </trkpt>
      <trkpt lat="42.70505" lon="0.64772">
        <ele>1974</ele>
        <time>2016-09-24T12:20:08.581Z</time>
      </trkpt>
      <trkpt lat="42.70506" lon="0.64785">
        <ele>1972</ele>
        <time>2016-09-24T12:20:26.556Z</time>
      </trkpt>
      <trkpt lat="42.70504" lon="0.64798">
        <ele>1972</ele>
        <time>2016-09-24T12:20:34.581Z</time>
      </trkpt>
      <trkpt lat="42.70513" lon="0.64802">
        <ele>1967.9990016</ele>
        <time>2016-09-24T12:20:49.611Z</time>
      </trkpt>
      <trkpt lat="42.7052" lon="0.64809">
        <ele>1967</ele>
        <time>2016-09-24T12:20:58.586Z</time>
      </trkpt>
      <trkpt lat="42.70528" lon="0.64816">
        <ele>1965</ele>
        <time>2016-09-24T12:21:10.581Z</time>
      </trkpt>
      <trkpt lat="42.70534" lon="0.64824">
        <ele>1964</ele>
        <time>2016-09-24T12:21:16.581Z</time>
      </trkpt>
      <trkpt lat="42.70541" lon="0.64833">
        <ele>1964</ele>
        <time>2016-09-24T12:21:27.583Z</time>
      </trkpt>
      <trkpt lat="42.70534" lon="0.64823">
        <ele>1960</ele>
        <time>2016-09-24T12:21:43.584Z</time>
      </trkpt>
      <trkpt lat="42.70542" lon="0.64815">
        <ele>1957</ele>
        <time>2016-09-24T12:21:56.583Z</time>
      </trkpt>
      <trkpt lat="42.70535" lon="0.64805">
        <ele>1955</ele>
        <time>2016-09-24T12:22:11.287Z</time>
      </trkpt>
      <trkpt lat="42.70544" lon="0.64801">
        <ele>1955</ele>
        <time>2016-09-24T12:22:17.553Z</time>
      </trkpt>
      <trkpt lat="42.70539" lon="0.64791">
        <ele>1954</ele>
        <time>2016-09-24T12:22:21.608Z</time>
      </trkpt>
      <trkpt lat="42.70528" lon="0.64782">
        <ele>1954</ele>
        <time>2016-09-24T12:22:27.586Z</time>
      </trkpt>
      <trkpt lat="42.70524" lon="0.64768">
        <ele>1950</ele>
        <time>2016-09-24T12:22:40.585Z</time>
      </trkpt>
      <trkpt lat="42.70533" lon="0.64763">
        <ele>1948.0955585007</ele>
        <time>2016-09-24T12:22:50.686Z</time>
      </trkpt>
      <trkpt lat="42.70542" lon="0.64747">
        <ele>1944</ele>
        <time>2016-09-24T12:23:07.612Z</time>
      </trkpt>
      <trkpt lat="42.70546" lon="0.64735">
        <ele>1942.1675574698</ele>
        <time>2016-09-24T12:23:12.556Z</time>
      </trkpt>
      <trkpt lat="42.70554" lon="0.64744">
        <ele>1939</ele>
        <time>2016-09-24T12:23:35.582Z</time>
      </trkpt>
      <trkpt lat="42.70558" lon="0.64756">
        <ele>1936</ele>
        <time>2016-09-24T12:23:46.582Z</time>
      </trkpt>
      <trkpt lat="42.70555" lon="0.6477">
        <ele>1934</ele>
        <time>2016-09-24T12:23:56.583Z</time>
      </trkpt>
      <trkpt lat="42.7056" lon="0.64782">
        <ele>1933</ele>
        <time>2016-09-24T12:24:09.554Z</time>
      </trkpt>
      <trkpt lat="42.70567" lon="0.64792">
        <ele>1928</ele>
        <time>2016-09-24T12:24:32.557Z</time>
      </trkpt>
      <trkpt lat="42.70576" lon="0.64797">
        <ele>1926</ele>
        <time>2016-09-24T12:24:41.585Z</time>
      </trkpt>
      <trkpt lat="42.70574" lon="0.64782">
        <ele>1923.0275463023</ele>
        <time>2016-09-24T12:25:09.657Z</time>
      </trkpt>
      <trkpt lat="42.70583" lon="0.64789">
        <ele>1919</ele>
        <time>2016-09-24T12:25:42.687Z</time>
      </trkpt>
      <trkpt lat="42.70588" lon="0.64779">
        <ele>1915</ele>
        <time>2016-09-24T12:26:06.593Z</time>
      </trkpt>
      <trkpt lat="42.70594" lon="0.64768">
        <ele>1911</ele>
        <time>2016-09-24T12:26:40.583Z</time>
      </trkpt>
      <trkpt lat="42.70587" lon="0.64761">
        <ele>1910</ele>
        <time>2016-09-24T12:26:47.683Z</time>
      </trkpt>
      <trkpt lat="42.70589" lon="0.64747">
        <ele>1905</ele>
        <time>2016-09-24T12:27:01.559Z</time>
      </trkpt>
      <trkpt lat="42.70598" lon="0.64746">
        <ele>1902</ele>
        <time>2016-09-24T12:27:33.582Z</time>
      </trkpt>
      <trkpt lat="42.70605" lon="0.64732">
        <ele>1896</ele>
        <time>2016-09-24T12:28:03.708Z</time>
      </trkpt>
      <trkpt lat="42.70611" lon="0.64721">
        <ele>1896</ele>
        <time>2016-09-24T12:28:15.583Z</time>
      </trkpt>
      <trkpt lat="42.70614" lon="0.64734">
        <ele>1892.0539904</ele>
        <time>2016-09-24T12:28:26.556Z</time>
      </trkpt>
      <trkpt lat="42.70618" lon="0.64745">
        <ele>1891</ele>
        <time>2016-09-24T12:28:42.588Z</time>
      </trkpt>
      <trkpt lat="42.7062" lon="0.64757">
        <ele>1889</ele>
        <time>2016-09-24T12:28:52.587Z</time>
      </trkpt>
      <trkpt lat="42.70616" lon="0.64768">
        <ele>1888</ele>
        <time>2016-09-24T12:29:12.583Z</time>
      </trkpt>
      <trkpt lat="42.70629" lon="0.64774">
        <ele>1885</ele>
        <time>2016-09-24T12:29:29.583Z</time>
      </trkpt>
      <trkpt lat="42.70634" lon="0.64788">
        <ele>1884</ele>
        <time>2016-09-24T12:29:53.553Z</time>
      </trkpt>
      <trkpt lat="42.70628" lon="0.64805">
        <ele>1884</ele>
        <time>2016-09-24T12:30:00.583Z</time>
      </trkpt>
      <trkpt lat="42.70642" lon="0.64797">
        <ele>1880</ele>
        <time>2016-09-24T12:30:04.611Z</time>
      </trkpt>
      <trkpt lat="42.70638" lon="0.64778">
        <ele>1880</ele>
        <time>2016-09-24T12:30:15.586Z</time>
      </trkpt>
      <trkpt lat="42.70647" lon="0.64781">
        <ele>1875.2277778907</ele>
        <time>2016-09-24T12:30:27.583Z</time>
      </trkpt>
      <trkpt lat="42.70658" lon="0.64789">
        <ele>1875</ele>
        <time>2016-09-24T12:30:37.383Z</time>
      </trkpt>
      <trkpt lat="42.70664" lon="0.64799">
        <ele>1868</ele>
        <time>2016-09-24T12:31:03.583Z</time>
      </trkpt>
      <trkpt lat="42.7067" lon="0.64809">
        <ele>1865.0269952</ele>
        <time>2016-09-24T12:31:16.583Z</time>
      </trkpt>
      <trkpt lat="42.7068" lon="0.64813">
        <ele>1859</ele>
        <time>2016-09-24T12:31:48.682Z</time>
      </trkpt>
      <trkpt lat="42.70685" lon="0.64801">
        <ele>1857</ele>
        <time>2016-09-24T12:32:19.581Z</time>
      </trkpt>
      <trkpt lat="42.70687" lon="0.64788">
        <ele>1854</ele>
        <time>2016-09-24T12:32:34.613Z</time>
      </trkpt>
      <trkpt lat="42.7069" lon="0.64775">
        <ele>1854</ele>
        <time>2016-09-24T12:32:45.583Z</time>
      </trkpt>
      <trkpt lat="42.70687" lon="0.64763">
        <ele>1852</ele>
        <time>2016-09-24T12:32:52.584Z</time>
      </trkpt>
      <trkpt lat="42.70697" lon="0.64764">
        <ele>1850</ele>
        <time>2016-09-24T12:32:59.583Z</time>
      </trkpt>
      <trkpt lat="42.70703" lon="0.64784">
        <ele>1847</ele>
        <time>2016-09-24T12:33:13.658Z</time>
      </trkpt>
      <trkpt lat="42.70708" lon="0.64795">
        <ele>1846</ele>
        <time>2016-09-24T12:33:24.613Z</time>
      </trkpt>
      <trkpt lat="42.70719" lon="0.64798">
        <ele>1843</ele>
        <time>2016-09-24T12:33:35.556Z</time>
      </trkpt>
      <trkpt lat="42.7071" lon="0.64794">
        <ele>1840</ele>
        <time>2016-09-24T12:33:49.583Z</time>
      </trkpt>
      <trkpt lat="42.70713" lon="0.64782">
        <ele>1838</ele>
        <time>2016-09-24T12:34:01.583Z</time>
      </trkpt>
      <trkpt lat="42.70712" lon="0.6477">
        <ele>1838</ele>
        <time>2016-09-24T12:34:08.583Z</time>
      </trkpt>
      <trkpt lat="42.70716" lon="0.64759">
        <ele>1837</ele>
        <time>2016-09-24T12:34:17.613Z</time>
      </trkpt>
      <trkpt lat="42.70726" lon="0.64761">
        <ele>1833</ele>
        <time>2016-09-24T12:34:34.590Z</time>
      </trkpt>
      <trkpt lat="42.70734" lon="0.64767">
        <ele>1827</ele>
        <time>2016-09-24T12:35:17.492Z</time>
      </trkpt>
      <trkpt lat="42.70739" lon="0.64752">
        <ele>1823</ele>
        <time>2016-09-24T12:35:54.684Z</time>
      </trkpt>
      <trkpt lat="42.70741" lon="0.64735">
        <ele>1821</ele>
        <time>2016-09-24T12:36:04.608Z</time>
      </trkpt>
      <trkpt lat="42.70739" lon="0.64721">
        <ele>1821</ele>
        <time>2016-09-24T12:36:15.582Z</time>
      </trkpt>
      <trkpt lat="42.7074" lon="0.64708">
        <ele>1816</ele>
        <time>2016-09-24T12:36:29.580Z</time>
      </trkpt>
      <trkpt lat="42.70741" lon="0.64695">
        <ele>1814</ele>
        <time>2016-09-24T12:36:40.610Z</time>
      </trkpt>
      <trkpt lat="42.70748" lon="0.64683">
        <ele>1810</ele>
        <time>2016-09-24T12:36:51.583Z</time>
      </trkpt>
      <trkpt lat="42.70757" lon="0.64685">
        <ele>1805</ele>
        <time>2016-09-24T12:37:07.583Z</time>
      </trkpt>
      <trkpt lat="42.70751" lon="0.64671">
        <ele>1804</ele>
        <time>2016-09-24T12:37:28.580Z</time>
      </trkpt>
      <trkpt lat="42.70749" lon="0.64656">
        <ele>1802</ele>
        <time>2016-09-24T12:37:36.987Z</time>
      </trkpt>
      <trkpt lat="42.70754" lon="0.6464">
        <ele>1801</ele>
        <time>2016-09-24T12:37:51.684Z</time>
      </trkpt>
      <trkpt lat="42.70757" lon="0.64628">
        <ele>1799</ele>
        <time>2016-09-24T12:38:04.583Z</time>
      </trkpt>
      <trkpt lat="42.70765" lon="0.64621">
        <ele>1799</ele>
        <time>2016-09-24T12:38:18.583Z</time>
      </trkpt>
      <trkpt lat="42.70779" lon="0.64621">
        <ele>1797.9973984524</ele>
        <time>2016-09-24T12:38:32.614Z</time>
      </trkpt>
      <trkpt lat="42.70794" lon="0.64614">
        <ele>1795</ele>
        <time>2016-09-24T12:38:46.583Z</time>
      </trkpt>
      <trkpt lat="42.70809" lon="0.64614">
        <ele>1794</ele>
        <time>2016-09-24T12:38:54.584Z</time>
      </trkpt>
      <trkpt lat="42.70823" lon="0.64616">
        <ele>1793</ele>
        <time>2016-09-24T12:39:06.414Z</time>
      </trkpt>
      <trkpt lat="42.70834" lon="0.64618">
        <ele>1792</ele>
        <time>2016-09-24T12:39:20.585Z</time>
      </trkpt>
      <trkpt lat="42.70842" lon="0.64623">
        <ele>1789</ele>
        <time>2016-09-24T12:39:31.583Z</time>
      </trkpt>
      <trkpt lat="42.70852" lon="0.64624">
        <ele>1788</ele>
        <time>2016-09-24T12:39:38.588Z</time>
      </trkpt>
      <trkpt lat="42.70859" lon="0.64615">
        <ele>1786</ele>
        <time>2016-09-24T12:39:47.583Z</time>
      </trkpt>
      <trkpt lat="42.70869" lon="0.64611">
        <ele>1783</ele>
        <time>2016-09-24T12:40:01.583Z</time>
      </trkpt>
      <trkpt lat="42.70867" lon="0.64598">
        <ele>1783</ele>
        <time>2016-09-24T12:40:12.583Z</time>
      </trkpt>
      <trkpt lat="42.70861" lon="0.64612">
        <ele>1783</ele>
        <time>2016-09-24T12:40:51.659Z</time>
      </trkpt>
      <trkpt lat="42.70871" lon="0.64606">
        <ele>1783</ele>
        <time>2016-09-24T12:41:01.684Z</time>
      </trkpt>
      <trkpt lat="42.70862" lon="0.64601">
        <ele>1783</ele>
        <time>2016-09-24T12:41:10.581Z</time>
      </trkpt>
      <trkpt lat="42.70857" lon="0.64589">
        <ele>1782</ele>
        <time>2016-09-24T12:41:23.558Z</time>
      </trkpt>
      <trkpt lat="42.70869" lon="0.64592">
        <ele>1782</ele>
        <time>2016-09-24T12:41:29.583Z</time>
      </trkpt>
      <trkpt lat="42.70872" lon="0.64581">
        <ele>1779</ele>
        <time>2016-09-24T12:41:43.583Z</time>
      </trkpt>
      <trkpt lat="42.70882" lon="0.64579">
        <ele>1777</ele>
        <time>2016-09-24T12:41:52.583Z</time>
      </trkpt>
      <trkpt lat="42.70892" lon="0.64582">
        <ele>1775.0460032</ele>
        <time>2016-09-24T12:42:01.587Z</time>
      </trkpt>
      <trkpt lat="42.70901" lon="0.64581">
        <ele>1775</ele>
        <time>2016-09-24T12:42:11.583Z</time>
      </trkpt>
      <trkpt lat="42.7091" lon="0.64582">
        <ele>1773</ele>
        <time>2016-09-24T12:42:24.583Z</time>
      </trkpt>
      <trkpt lat="42.70925" lon="0.6458">
        <ele>1770</ele>
        <time>2016-09-24T12:42:41.584Z</time>
      </trkpt>
      <trkpt lat="42.70936" lon="0.64582">
        <ele>1768</ele>
        <time>2016-09-24T12:42:55.583Z</time>
      </trkpt>
      <trkpt lat="42.70942" lon="0.64592">
        <ele>1765</ele>
        <time>2016-09-24T12:43:12.552Z</time>
      </trkpt>
      <trkpt lat="42.70951" lon="0.64598">
        <ele>1764</ele>
        <time>2016-09-24T12:43:25.582Z</time>
      </trkpt>
      <trkpt lat="42.70946" lon="0.6461">
        <ele>1760</ele>
        <time>2016-09-24T12:43:47.583Z</time>
      </trkpt>
      <trkpt lat="42.70936" lon="0.64612">
        <ele>1756</ele>
        <time>2016-09-24T12:44:01.614Z</time>
      </trkpt>
      <trkpt lat="42.70927" lon="0.64609">
        <ele>1756.9965161836</ele>
        <time>2016-09-24T12:44:20.614Z</time>
      </trkpt>
      <trkpt lat="42.7093" lon="0.64621">
        <ele>1755</ele>
        <time>2016-09-24T12:44:37.584Z</time>
      </trkpt>
      <trkpt lat="42.70942" lon="0.64625">
        <ele>1752</ele>
        <time>2016-09-24T12:44:49.583Z</time>
      </trkpt>
      <trkpt lat="42.70951" lon="0.64629">
        <ele>1749</ele>
        <time>2016-09-24T12:45:01.609Z</time>
      </trkpt>
      <trkpt lat="42.70962" lon="0.64638">
        <ele>1747</ele>
        <time>2016-09-24T12:45:17.685Z</time>
      </trkpt>
      <trkpt lat="42.70971" lon="0.64635">
        <ele>1743</ele>
        <time>2016-09-24T12:45:28.585Z</time>
      </trkpt>
      <trkpt lat="42.70982" lon="0.64636">
        <ele>1741</ele>
        <time>2016-09-24T12:45:36.607Z</time>
      </trkpt>
      <trkpt lat="42.7099" lon="0.64629">
        <ele>1740</ele>
        <time>2016-09-24T12:45:49.614Z</time>
      </trkpt>
      <trkpt lat="42.71001" lon="0.64621">
        <ele>1739</ele>
        <time>2016-09-24T12:45:59.589Z</time>
      </trkpt>
      <trkpt lat="42.71008" lon="0.64628">
        <ele>1735</ele>
        <time>2016-09-24T12:46:12.582Z</time>
      </trkpt>
      <trkpt lat="42.71022" lon="0.64633">
        <ele>1733</ele>
        <time>2016-09-24T12:46:24.659Z</time>
      </trkpt>
      <trkpt lat="42.71032" lon="0.64637">
        <ele>1731</ele>
        <time>2016-09-24T12:46:34.614Z</time>
      </trkpt>
      <trkpt lat="42.71023" lon="0.64645">
        <ele>1726</ele>
        <time>2016-09-24T12:47:02.610Z</time>
      </trkpt>
      <trkpt lat="42.71013" lon="0.64647">
        <ele>1726</ele>
        <time>2016-09-24T12:47:11.583Z</time>
      </trkpt>
      <trkpt lat="42.71017" lon="0.64658">
        <ele>1722.3224055172</ele>
        <time>2016-09-24T12:47:26.583Z</time>
      </trkpt>
      <trkpt lat="42.71027" lon="0.64665">
        <ele>1719</ele>
        <time>2016-09-24T12:47:39.687Z</time>
      </trkpt>
      <trkpt lat="42.71037" lon="0.64668">
        <ele>1718</ele>
        <time>2016-09-24T12:47:46.583Z</time>
      </trkpt>
      <trkpt lat="42.71046" lon="0.64674">
        <ele>1714</ele>
        <time>2016-09-24T12:48:01.583Z</time>
      </trkpt>
      <trkpt lat="42.71037" lon="0.64679">
        <ele>1712</ele>
        <time>2016-09-24T12:48:21.579Z</time>
      </trkpt>
      <trkpt lat="42.71028" lon="0.64682">
        <ele>1709</ele>
        <time>2016-09-24T12:48:27.609Z</time>
      </trkpt>
      <trkpt lat="42.7103" lon="0.64696">
        <ele>1706</ele>
        <time>2016-09-24T12:48:43.684Z</time>
      </trkpt>
      <trkpt lat="42.71039" lon="0.64695">
        <ele>1702.7280956405</ele>
        <time>2016-09-24T12:49:00.583Z</time>
      </trkpt>
      <trkpt lat="42.71048" lon="0.64704">
        <ele>1701</ele>
        <time>2016-09-24T12:49:12.584Z</time>
      </trkpt>
      <trkpt lat="42.71055" lon="0.64712">
        <ele>1698</ele>
        <time>2016-09-24T12:49:23.583Z</time>
      </trkpt>
      <trkpt lat="42.71061" lon="0.64722">
        <ele>1695</ele>
        <time>2016-09-24T12:49:37.579Z</time>
      </trkpt>
      <trkpt lat="42.71052" lon="0.64718">
        <ele>1694</ele>
        <time>2016-09-24T12:49:49.581Z</time>
      </trkpt>
      <trkpt lat="42.71043" lon="0.64718">
        <ele>1694</ele>
        <time>2016-09-24T12:49:53.581Z</time>
      </trkpt>
      <trkpt lat="42.71045" lon="0.64731">
        <ele>1687.2999981583</ele>
        <time>2016-09-24T12:50:16.583Z</time>
      </trkpt>
      <trkpt lat="42.71055" lon="0.64735">
        <ele>1686</ele>
        <time>2016-09-24T12:50:25.612Z</time>
      </trkpt>
      <trkpt lat="42.71066" lon="0.64737">
        <ele>1686</ele>
        <time>2016-09-24T12:50:33.589Z</time>
      </trkpt>
      <trkpt lat="42.71077" lon="0.64741">
        <ele>1684</ele>
        <time>2016-09-24T12:50:41.584Z</time>
      </trkpt>
      <trkpt lat="42.71086" lon="0.64741">
        <ele>1682</ele>
        <time>2016-09-24T12:50:50.611Z</time>
      </trkpt>
      <trkpt lat="42.71093" lon="0.64751">
        <ele>1679</ele>
        <time>2016-09-24T12:51:05.583Z</time>
      </trkpt>
      <trkpt lat="42.71098" lon="0.64762">
        <ele>1678</ele>
        <time>2016-09-24T12:51:11.609Z</time>
      </trkpt>
      <trkpt lat="42.71113" lon="0.64765">
        <ele>1677</ele>
        <time>2016-09-24T12:51:19.584Z</time>
      </trkpt>
      <trkpt lat="42.71109" lon="0.64775">
        <ele>1673</ele>
        <time>2016-09-24T12:51:35.582Z</time>
      </trkpt>
      <trkpt lat="42.71117" lon="0.6478">
        <ele>1666</ele>
        <time>2016-09-24T12:52:13.583Z</time>
      </trkpt>
      <trkpt lat="42.71126" lon="0.6479">
        <ele>1663</ele>
        <time>2016-09-24T12:52:25.580Z</time>
      </trkpt>
      <trkpt lat="42.71118" lon="0.64796">
        <ele>1660.0288855387</ele>
        <time>2016-09-24T12:52:30.584Z</time>
      </trkpt>
      <trkpt lat="42.71127" lon="0.64799">
        <ele>1656</ele>
        <time>2016-09-24T12:52:56.583Z</time>
      </trkpt>
      <trkpt lat="42.71127" lon="0.64812">
        <ele>1651</ele>
        <time>2016-09-24T12:53:14.583Z</time>
      </trkpt>
      <trkpt lat="42.71119" lon="0.64817">
        <ele>1650</ele>
        <time>2016-09-24T12:53:22.583Z</time>
      </trkpt>
      <trkpt lat="42.71126" lon="0.64827">
        <ele>1644</ele>
        <time>2016-09-24T12:53:44.583Z</time>
      </trkpt>
      <trkpt lat="42.71134" lon="0.6483">
        <ele>1642</ele>
        <time>2016-09-24T12:53:53.583Z</time>
      </trkpt>
      <trkpt lat="42.71144" lon="0.6483">
        <ele>1638</ele>
        <time>2016-09-24T12:54:03.583Z</time>
      </trkpt>
      <trkpt lat="42.71153" lon="0.64836">
        <ele>1636</ele>
        <time>2016-09-24T12:54:16.616Z</time>
      </trkpt>
      <trkpt lat="42.71162" lon="0.64834">
        <ele>1630</ele>
        <time>2016-09-24T12:54:29.583Z</time>
      </trkpt>
      <trkpt lat="42.71168" lon="0.64844">
        <ele>1627</ele>
        <time>2016-09-24T12:54:37.687Z</time>
      </trkpt>
      <trkpt lat="42.71181" lon="0.64846">
        <ele>1623.9965050532</ele>
        <time>2016-09-24T12:55:09.612Z</time>
      </trkpt>
      <trkpt lat="42.71191" lon="0.64848">
        <ele>1620</ele>
        <time>2016-09-24T12:55:22.611Z</time>
      </trkpt>
      <trkpt lat="42.71197" lon="0.64859">
        <ele>1620</ele>
        <time>2016-09-24T12:55:29.583Z</time>
      </trkpt>
      <trkpt lat="42.71205" lon="0.6487">
        <ele>1616.1253462736</ele>
        <time>2016-09-24T12:55:41.582Z</time>
      </trkpt>
      <trkpt lat="42.71214" lon="0.64871">
        <ele>1614</ele>
        <time>2016-09-24T12:55:47.611Z</time>
      </trkpt>
      <trkpt lat="42.71223" lon="0.64861">
        <ele>1613</ele>
        <time>2016-09-24T12:55:55.381Z</time>
      </trkpt>
      <trkpt lat="42.71232" lon="0.64863">
        <ele>1609</ele>
        <time>2016-09-24T12:56:07.583Z</time>
      </trkpt>
      <trkpt lat="42.71242" lon="0.64864">
        <ele>1605</ele>
        <time>2016-09-24T12:56:18.687Z</time>
      </trkpt>
      <trkpt lat="42.71259" lon="0.64873">
        <ele>1604</ele>
        <time>2016-09-24T12:56:25.582Z</time>
      </trkpt>
      <trkpt lat="42.71268" lon="0.64876">
        <ele>1601</ele>
        <time>2016-09-24T12:56:42.681Z</time>
      </trkpt>
      <trkpt lat="42.71279" lon="0.64879">
        <ele>1598</ele>
        <time>2016-09-24T12:56:58.681Z</time>
      </trkpt>
      <trkpt lat="42.71289" lon="0.64882">
        <ele>1593.9980032</ele>
        <time>2016-09-24T12:57:08.612Z</time>
      </trkpt>
      <trkpt lat="42.71299" lon="0.64884">
        <ele>1593</ele>
        <time>2016-09-24T12:57:18.591Z</time>
      </trkpt>
      <trkpt lat="42.71309" lon="0.64884">
        <ele>1591</ele>
        <time>2016-09-24T12:57:28.554Z</time>
      </trkpt>
      <trkpt lat="42.71304" lon="0.64894">
        <ele>1589</ele>
        <time>2016-09-24T12:57:37.583Z</time>
      </trkpt>
      <trkpt lat="42.71291" lon="0.64906">
        <ele>1588</ele>
        <time>2016-09-24T12:57:49.656Z</time>
      </trkpt>
      <trkpt lat="42.71283" lon="0.64919">
        <ele>1585</ele>
        <time>2016-09-24T12:57:52.583Z</time>
      </trkpt>
      <trkpt lat="42.71274" lon="0.64924">
        <ele>1581</ele>
        <time>2016-09-24T12:58:02.583Z</time>
      </trkpt>
      <trkpt lat="42.71264" lon="0.64925">
        <ele>1581</ele>
        <time>2016-09-24T12:58:19.583Z</time>
      </trkpt>
      <trkpt lat="42.71258" lon="0.64935">
        <ele>1579</ele>
        <time>2016-09-24T12:58:32.583Z</time>
      </trkpt>
      <trkpt lat="42.71257" lon="0.64948">
        <ele>1576</ele>
        <time>2016-09-24T12:58:43.583Z</time>
      </trkpt>
      <trkpt lat="42.71258" lon="0.64962">
        <ele>1573</ele>
        <time>2016-09-24T12:58:56.684Z</time>
      </trkpt>
      <trkpt lat="42.71266" lon="0.64956">
        <ele>1571</ele>
        <time>2016-09-24T12:59:09.583Z</time>
      </trkpt>
      <trkpt lat="42.71275" lon="0.64961">
        <ele>1567</ele>
        <time>2016-09-24T12:59:23.583Z</time>
      </trkpt>
      <trkpt lat="42.71284" lon="0.64957">
        <ele>1567</ele>
        <time>2016-09-24T12:59:29.583Z</time>
      </trkpt>
      <trkpt lat="42.71293" lon="0.64957">
        <ele>1565</ele>
        <time>2016-09-24T12:59:36.583Z</time>
      </trkpt>
      <trkpt lat="42.71302" lon="0.64973">
        <ele>1563</ele>
        <time>2016-09-24T12:59:48.726Z</time>
      </trkpt>
      <trkpt lat="42.71298" lon="0.64995">
        <ele>1558.1219934172</ele>
        <time>2016-09-24T13:00:02.583Z</time>
      </trkpt>
      <trkpt lat="42.71295" lon="0.65009">
        <ele>1558</ele>
        <time>2016-09-24T13:00:09.583Z</time>
      </trkpt>
      <trkpt lat="42.71291" lon="0.65021">
        <ele>1557</ele>
        <time>2016-09-24T13:00:20.583Z</time>
      </trkpt>
      <trkpt lat="42.71297" lon="0.65034">
        <ele>1554</ele>
        <time>2016-09-24T13:00:35.586Z</time>
      </trkpt>
      <trkpt lat="42.71305" lon="0.6504">
        <ele>1549</ele>
        <time>2016-09-24T13:00:50.581Z</time>
      </trkpt>
      <trkpt lat="42.71313" lon="0.65047">
        <ele>1549</ele>
        <time>2016-09-24T13:00:57.682Z</time>
      </trkpt>
      <trkpt lat="42.71324" lon="0.65054">
        <ele>1546</ele>
        <time>2016-09-24T13:01:09.588Z</time>
      </trkpt>
      <trkpt lat="42.71328" lon="0.65066">
        <ele>1543</ele>
        <time>2016-09-24T13:01:24.612Z</time>
      </trkpt>
      <trkpt lat="42.71344" lon="0.65067">
        <ele>1542</ele>
        <time>2016-09-24T13:01:39.559Z</time>
      </trkpt>
      <trkpt lat="42.71355" lon="0.65068">
        <ele>1541</ele>
        <time>2016-09-24T13:01:49.584Z</time>
      </trkpt>
      <trkpt lat="42.71364" lon="0.65062">
        <ele>1536</ele>
        <time>2016-09-24T13:02:01.580Z</time>
      </trkpt>
      <trkpt lat="42.7137" lon="0.65051">
        <ele>1535</ele>
        <time>2016-09-24T13:02:11.583Z</time>
      </trkpt>
      <trkpt lat="42.71378" lon="0.65044">
        <ele>1532</ele>
        <time>2016-09-24T13:02:27.580Z</time>
      </trkpt>
      <trkpt lat="42.71387" lon="0.65033">
        <ele>1531</ele>
        <time>2016-09-24T13:02:36.616Z</time>
      </trkpt>
      <trkpt lat="42.71398" lon="0.65032">
        <ele>1530</ele>
        <time>2016-09-24T13:02:45.583Z</time>
      </trkpt>
      <trkpt lat="42.71406" lon="0.65027">
        <ele>1528</ele>
        <time>2016-09-24T13:02:54.583Z</time>
      </trkpt>
      <trkpt lat="42.71417" lon="0.65027">
        <ele>1526</ele>
        <time>2016-09-24T13:03:04.581Z</time>
      </trkpt>
      <trkpt lat="42.71426" lon="0.65032">
        <ele>1523</ele>
        <time>2016-09-24T13:03:13.581Z</time>
      </trkpt>
      <trkpt lat="42.71434" lon="0.6504">
        <ele>1521</ele>
        <time>2016-09-24T13:03:24.583Z</time>
      </trkpt>
      <trkpt lat="42.71441" lon="0.65049">
        <ele>1520</ele>
        <time>2016-09-24T13:03:38.583Z</time>
      </trkpt>
      <trkpt lat="42.7145" lon="0.65051">
        <ele>1518</ele>
        <time>2016-09-24T13:03:49.580Z</time>
      </trkpt>
      <trkpt lat="42.71461" lon="0.65058">
        <ele>1514</ele>
        <time>2016-09-24T13:04:02.583Z</time>
      </trkpt>
      <trkpt lat="42.71473" lon="0.65071">
        <ele>1514</ele>
        <time>2016-09-24T13:04:20.586Z</time>
      </trkpt>
      <trkpt lat="42.71482" lon="0.65073">
        <ele>1511</ele>
        <time>2016-09-24T13:04:26.579Z</time>
      </trkpt>
      <trkpt lat="42.7149" lon="0.6508">
        <ele>1509</ele>
        <time>2016-09-24T13:04:33.686Z</time>
      </trkpt>
      <trkpt lat="42.71497" lon="0.65092">
        <ele>1508</ele>
        <time>2016-09-24T13:04:51.612Z</time>
      </trkpt>
      <trkpt lat="42.71507" lon="0.65096">
        <ele>1504</ele>
        <time>2016-09-24T13:05:03.583Z</time>
      </trkpt>
      <trkpt lat="42.71517" lon="0.65098">
        <ele>1502</ele>
        <time>2016-09-24T13:05:09.583Z</time>
      </trkpt>
      <trkpt lat="42.71522" lon="0.6511">
        <ele>1499</ele>
        <time>2016-09-24T13:05:19.686Z</time>
      </trkpt>
      <trkpt lat="42.71533" lon="0.65109">
        <ele>1498</ele>
        <time>2016-09-24T13:05:28.608Z</time>
      </trkpt>
      <trkpt lat="42.71546" lon="0.65113">
        <ele>1495</ele>
        <time>2016-09-24T13:05:42.686Z</time>
      </trkpt>
      <trkpt lat="42.71557" lon="0.65118">
        <ele>1492</ele>
        <time>2016-09-24T13:05:55.554Z</time>
      </trkpt>
      <trkpt lat="42.71566" lon="0.65119">
        <ele>1489</ele>
        <time>2016-09-24T13:06:07.584Z</time>
      </trkpt>
      <trkpt lat="42.71575" lon="0.65111">
        <ele>1486</ele>
        <time>2016-09-24T13:06:17.584Z</time>
      </trkpt>
      <trkpt lat="42.71583" lon="0.65118">
        <ele>1484.1539112239</ele>
        <time>2016-09-24T13:06:25.583Z</time>
      </trkpt>
      <trkpt lat="42.71593" lon="0.65124">
        <ele>1483.3640531406</ele>
        <time>2016-09-24T13:06:31.583Z</time>
      </trkpt>
      <trkpt lat="42.71592" lon="0.65139">
        <ele>1483</ele>
        <time>2016-09-24T13:06:42.583Z</time>
      </trkpt>
      <trkpt lat="42.71589" lon="0.65151">
        <ele>1481.1981392593</ele>
        <time>2016-09-24T13:06:50.583Z</time>
      </trkpt>
      <trkpt lat="42.71591" lon="0.65164">
        <ele>1478</ele>
        <time>2016-09-24T13:07:04.584Z</time>
      </trkpt>
      <trkpt lat="42.71586" lon="0.65175">
        <ele>1480</ele>
        <time>2016-09-24T13:07:18.586Z</time>
      </trkpt>
      <trkpt lat="42.71593" lon="0.65185">
        <ele>1480</ele>
        <time>2016-09-24T13:07:26.582Z</time>
      </trkpt>
      <trkpt lat="42.71599" lon="0.65194">
        <ele>1479</ele>
        <time>2016-09-24T13:07:36.582Z</time>
      </trkpt>
      <trkpt lat="42.71607" lon="0.65202">
        <ele>1477</ele>
        <time>2016-09-24T13:07:43.587Z</time>
      </trkpt>
      <trkpt lat="42.71618" lon="0.65208">
        <ele>1476</ele>
        <time>2016-09-24T13:07:53.582Z</time>
      </trkpt>
      <trkpt lat="42.71625" lon="0.65216">
        <ele>1476</ele>
        <time>2016-09-24T13:07:59.587Z</time>
      </trkpt>
      <trkpt lat="42.71635" lon="0.65219">
        <ele>1473</ele>
        <time>2016-09-24T13:08:04.583Z</time>
      </trkpt>
      <trkpt lat="42.71643" lon="0.65222">
        <ele>1472</ele>
        <time>2016-09-24T13:08:08.558Z</time>
      </trkpt>
      <trkpt lat="42.71653" lon="0.65224">
        <ele>1471</ele>
        <time>2016-09-24T13:08:21.583Z</time>
      </trkpt>
      <trkpt lat="42.71662" lon="0.65228">
        <ele>1470</ele>
        <time>2016-09-24T13:08:33.682Z</time>
      </trkpt>
      <trkpt lat="42.71676" lon="0.65214">
        <ele>1469</ele>
        <time>2016-09-24T13:08:46.578Z</time>
      </trkpt>
      <trkpt lat="42.71679" lon="0.65226">
        <ele>1469</ele>
        <time>2016-09-24T13:08:51.578Z</time>
      </trkpt>
      <trkpt lat="42.71687" lon="0.65233">
        <ele>1468</ele>
        <time>2016-09-24T13:09:05.583Z</time>
      </trkpt>
      <trkpt lat="42.71698" lon="0.65239">
        <ele>1468</ele>
        <time>2016-09-24T13:09:12.583Z</time>
      </trkpt>
      <trkpt lat="42.71707" lon="0.65246">
        <ele>1467</ele>
        <time>2016-09-24T13:09:22.608Z</time>
      </trkpt>
      <trkpt lat="42.71717" lon="0.65249">
        <ele>1467</ele>
        <time>2016-09-24T13:09:29.582Z</time>
      </trkpt>
      <trkpt lat="42.71726" lon="0.65258">
        <ele>1466</ele>
        <time>2016-09-24T13:09:41.682Z</time>
      </trkpt>
      <trkpt lat="42.71734" lon="0.65267">
        <ele>1466</ele>
        <time>2016-09-24T13:09:46.582Z</time>
      </trkpt>
      <trkpt lat="42.71744" lon="0.65267">
        <ele>1465</ele>
        <time>2016-09-24T13:09:56.583Z</time>
      </trkpt>
      <trkpt lat="42.71754" lon="0.65271">
        <ele>1463</ele>
        <time>2016-09-24T13:10:04.583Z</time>
      </trkpt>
      <trkpt lat="42.71763" lon="0.65274">
        <ele>1463</ele>
        <time>2016-09-24T13:10:15.583Z</time>
      </trkpt>
      <trkpt lat="42.71772" lon="0.65276">
        <ele>1461</ele>
        <time>2016-09-24T13:10:23.581Z</time>
      </trkpt>
      <trkpt lat="42.71781" lon="0.65283">
        <ele>1461</ele>
        <time>2016-09-24T13:10:29.686Z</time>
      </trkpt>
      <trkpt lat="42.71788" lon="0.65291">
        <ele>1460</ele>
        <time>2016-09-24T13:10:37.583Z</time>
      </trkpt>
      <trkpt lat="42.71792" lon="0.65303">
        <ele>1459</ele>
        <time>2016-09-24T13:10:43.588Z</time>
      </trkpt>
      <trkpt lat="42.71798" lon="0.65313">
        <ele>1457</ele>
        <time>2016-09-24T13:10:52.689Z</time>
      </trkpt>
      <trkpt lat="42.71806" lon="0.6532">
        <ele>1456</ele>
        <time>2016-09-24T13:10:59.584Z</time>
      </trkpt>
      <trkpt lat="42.71814" lon="0.65327">
        <ele>1456</ele>
        <time>2016-09-24T13:11:15.582Z</time>
      </trkpt>
      <trkpt lat="42.71822" lon="0.65333">
        <ele>1455</ele>
        <time>2016-09-24T13:11:21.583Z</time>
      </trkpt>
      <trkpt lat="42.7183" lon="0.65342">
        <ele>1455</ele>
        <time>2016-09-24T13:11:29.586Z</time>
      </trkpt>
      <trkpt lat="42.7184" lon="0.65344">
        <ele>1455</ele>
        <time>2016-09-24T13:11:34.582Z</time>
      </trkpt>
      <trkpt lat="42.71849" lon="0.65347">
        <ele>1455</ele>
        <time>2016-09-24T13:11:40.582Z</time>
      </trkpt>
      <trkpt lat="42.71855" lon="0.65357">
        <ele>1454</ele>
        <time>2016-09-24T13:11:49.582Z</time>
      </trkpt>
      <trkpt lat="42.71861" lon="0.65367">
        <ele>1455</ele>
        <time>2016-09-24T13:11:57.686Z</time>
      </trkpt>
      <trkpt lat="42.71868" lon="0.65375">
        <ele>1454</ele>
        <time>2016-09-24T13:12:15.583Z</time>
      </trkpt>
      <trkpt lat="42.71878" lon="0.65379">
        <ele>1454</ele>
        <time>2016-09-24T13:12:26.582Z</time>
      </trkpt>
      <trkpt lat="42.71887" lon="0.65376">
        <ele>1453</ele>
        <time>2016-09-24T13:12:36.583Z</time>
      </trkpt>
      <trkpt lat="42.71897" lon="0.65367">
        <ele>1452</ele>
        <time>2016-09-24T13:12:44.583Z</time>
      </trkpt>
      <trkpt lat="42.71906" lon="0.65376">
        <ele>1450</ele>
        <time>2016-09-24T13:12:52.611Z</time>
      </trkpt>
      <trkpt lat="42.71915" lon="0.65374">
        <ele>1450</ele>
        <time>2016-09-24T13:12:58.583Z</time>
      </trkpt>
      <trkpt lat="42.71924" lon="0.65374">
        <ele>1448</ele>
        <time>2016-09-24T13:13:09.581Z</time>
      </trkpt>
      <trkpt lat="42.71933" lon="0.6537">
        <ele>1442</ele>
        <time>2016-09-24T13:13:26.582Z</time>
      </trkpt>
      <trkpt lat="42.71941" lon="0.65378">
        <ele>1441</ele>
        <time>2016-09-24T13:13:33.581Z</time>
      </trkpt>
      <trkpt lat="42.7195" lon="0.65384">
        <ele>1440</ele>
        <time>2016-09-24T13:13:42.582Z</time>
      </trkpt>
      <trkpt lat="42.71958" lon="0.6539">
        <ele>1437</ele>
        <time>2016-09-24T13:13:48.583Z</time>
      </trkpt>
      <trkpt lat="42.71963" lon="0.65379">
        <ele>1436</ele>
        <time>2016-09-24T13:13:53.583Z</time>
      </trkpt>
      <trkpt lat="42.71973" lon="0.65386">
        <ele>1434</ele>
        <time>2016-09-24T13:14:06.583Z</time>
      </trkpt>
      <trkpt lat="42.71982" lon="0.65389">
        <ele>1433.0230016</ele>
        <time>2016-09-24T13:14:20.587Z</time>
      </trkpt>
      <trkpt lat="42.7199" lon="0.65398">
        <ele>1432</ele>
        <time>2016-09-24T13:14:31.583Z</time>
      </trkpt>
      <trkpt lat="42.71999" lon="0.65404">
        <ele>1431</ele>
        <time>2016-09-24T13:14:43.583Z</time>
      </trkpt>
      <trkpt lat="42.72007" lon="0.65414">
        <ele>1429</ele>
        <time>2016-09-24T13:14:53.583Z</time>
      </trkpt>
      <trkpt lat="42.72014" lon="0.65422">
        <ele>1429</ele>
        <time>2016-09-24T13:15:00.613Z</time>
      </trkpt>
      <trkpt lat="42.72018" lon="0.65433">
        <ele>1424</ele>
        <time>2016-09-24T13:15:13.583Z</time>
      </trkpt>
      <trkpt lat="42.72026" lon="0.65444">
        <ele>1423</ele>
        <time>2016-09-24T13:15:29.584Z</time>
      </trkpt>
      <trkpt lat="42.72035" lon="0.65446">
        <ele>1420</ele>
        <time>2016-09-24T13:15:41.583Z</time>
      </trkpt>
      <trkpt lat="42.72044" lon="0.65449">
        <ele>1419</ele>
        <time>2016-09-24T13:15:54.583Z</time>
      </trkpt>
      <trkpt lat="42.72051" lon="0.65436">
        <ele>1418</ele>
        <time>2016-09-24T13:16:09.683Z</time>
      </trkpt>
      <trkpt lat="42.72051" lon="0.65424">
        <ele>1418</ele>
        <time>2016-09-24T13:16:20.583Z</time>
      </trkpt>
      <trkpt lat="42.72058" lon="0.65414">
        <ele>1418</ele>
        <time>2016-09-24T13:16:30.583Z</time>
      </trkpt>
      <trkpt lat="42.72064" lon="0.65404">
        <ele>1418</ele>
        <time>2016-09-24T13:16:39.583Z</time>
      </trkpt>
      <trkpt lat="42.72072" lon="0.65391">
        <ele>1418</ele>
        <time>2016-09-24T13:16:49.682Z</time>
      </trkpt>
      <trkpt lat="42.72073" lon="0.65378">
        <ele>1418</ele>
        <time>2016-09-24T13:16:56.583Z</time>
      </trkpt>
      <trkpt lat="42.7208" lon="0.6537">
        <ele>1417</ele>
        <time>2016-09-24T13:17:06.607Z</time>
      </trkpt>
      <trkpt lat="42.72079" lon="0.65358">
        <ele>1417</ele>
        <time>2016-09-24T13:17:14.585Z</time>
      </trkpt>
      <trkpt lat="42.72089" lon="0.65366">
        <ele>1416</ele>
        <time>2016-09-24T13:17:24.580Z</time>
      </trkpt>
      <trkpt lat="42.72099" lon="0.6537">
        <ele>1416</ele>
        <time>2016-09-24T13:17:30.581Z</time>
      </trkpt>
      <trkpt lat="42.7211" lon="0.65374">
        <ele>1415</ele>
        <time>2016-09-24T13:17:40.582Z</time>
      </trkpt>
      <trkpt lat="42.72118" lon="0.65381">
        <ele>1415</ele>
        <time>2016-09-24T13:17:44.688Z</time>
      </trkpt>
      <trkpt lat="42.72122" lon="0.65372">
        <ele>1415</ele>
        <time>2016-09-24T13:17:58.583Z</time>
      </trkpt>
    </trkseg>
  </trk>
</gpx>